<?xml version="1.0" encoding="UTF-8" standalone="no" ?>
<gpx xmlns="http://www.topografix.com/GPX/1/1" xmlns:xsi="http://www.w3.org/2001/XMLSchema-instance" xsi:schemaLocation="http://www.topografix.com/GPX/1/1 http://www.topografix.com/GPX/1/1/gpx.xsd" version="1.1" creator="VisuGPX - https://www.visugpx.com">
  <metadata>
    <name>ADEPS ATH TENNIS</name>
    <desc><![CDATA[Randonnée de  10 kms dans l’entité de ATH.  Très belle marche ,une partie le long de la Dendre   et le village de Rebaix.]]></desc>
  </metadata>
  <trk>
    <name><![CDATA[2018-02-18 11:44:49]]></name>
    <trkseg>
      <trkpt lat="50.63673" lon="3.7798">
        <ele>36.67</ele>
        <time>2018-02-18T08:24:56Z</time>
      </trkpt>
      <trkpt lat="50.63671" lon="3.77984">
        <ele>35.71</ele>
        <time>2018-02-18T08:25:21Z</time>
      </trkpt>
      <trkpt lat="50.63675" lon="3.77985">
        <ele>35.71</ele>
        <time>2018-02-18T08:25:32Z</time>
      </trkpt>
      <trkpt lat="50.63679" lon="3.77988">
        <ele>35.71</ele>
        <time>2018-02-18T08:25:36Z</time>
      </trkpt>
      <trkpt lat="50.63688" lon="3.77984">
        <ele>35.23</ele>
        <time>2018-02-18T08:25:45Z</time>
      </trkpt>
      <trkpt lat="50.63692" lon="3.77977">
        <ele>35.23</ele>
        <time>2018-02-18T08:25:50Z</time>
      </trkpt>
      <trkpt lat="50.63704" lon="3.77971">
        <ele>34.74</ele>
        <time>2018-02-18T08:26:02Z</time>
      </trkpt>
      <trkpt lat="50.63706" lon="3.77971">
        <ele>34.74</ele>
        <time>2018-02-18T08:26:04Z</time>
      </trkpt>
      <trkpt lat="50.63709" lon="3.77971">
        <ele>34.74</ele>
        <time>2018-02-18T08:26:07Z</time>
      </trkpt>
      <trkpt lat="50.63716" lon="3.77973">
        <ele>34.74</ele>
        <time>2018-02-18T08:26:13Z</time>
      </trkpt>
      <trkpt lat="50.63731" lon="3.77982">
        <ele>34.74</ele>
        <time>2018-02-18T08:26:28Z</time>
      </trkpt>
      <trkpt lat="50.63745" lon="3.77994">
        <ele>34.74</ele>
        <time>2018-02-18T08:26:42Z</time>
      </trkpt>
      <trkpt lat="50.63753" lon="3.77998">
        <ele>34.74</ele>
        <time>2018-02-18T08:26:55Z</time>
      </trkpt>
      <trkpt lat="50.63755" lon="3.77998">
        <ele>34.74</ele>
        <time>2018-02-18T08:26:56Z</time>
      </trkpt>
      <trkpt lat="50.63759" lon="3.77998">
        <ele>34.74</ele>
        <time>2018-02-18T08:27:00Z</time>
      </trkpt>
      <trkpt lat="50.63766" lon="3.78">
        <ele>34.74</ele>
        <time>2018-02-18T08:27:05Z</time>
      </trkpt>
      <trkpt lat="50.63783" lon="3.77987">
        <ele>34.26</ele>
        <time>2018-02-18T08:27:18Z</time>
      </trkpt>
      <trkpt lat="50.63786" lon="3.77976">
        <ele>34.26</ele>
        <time>2018-02-18T08:27:26Z</time>
      </trkpt>
      <trkpt lat="50.63788" lon="3.77972">
        <ele>34.26</ele>
        <time>2018-02-18T08:27:28Z</time>
      </trkpt>
      <trkpt lat="50.63791" lon="3.77966">
        <ele>34.26</ele>
        <time>2018-02-18T08:27:32Z</time>
      </trkpt>
      <trkpt lat="50.63791" lon="3.77937">
        <ele>34.26</ele>
        <time>2018-02-18T08:27:47Z</time>
      </trkpt>
      <trkpt lat="50.63791" lon="3.77916">
        <ele>33.78</ele>
        <time>2018-02-18T08:28:00Z</time>
      </trkpt>
      <trkpt lat="50.63807" lon="3.77908">
        <ele>33.3</ele>
        <time>2018-02-18T08:28:14Z</time>
      </trkpt>
      <trkpt lat="50.63808" lon="3.77907">
        <ele>33.3</ele>
        <time>2018-02-18T08:28:15Z</time>
      </trkpt>
      <trkpt lat="50.63814" lon="3.77897">
        <ele>32.82</ele>
        <time>2018-02-18T08:28:22Z</time>
      </trkpt>
      <trkpt lat="50.63815" lon="3.77877">
        <ele>32.34</ele>
        <time>2018-02-18T08:28:33Z</time>
      </trkpt>
      <trkpt lat="50.63811" lon="3.77845">
        <ele>31.86</ele>
        <time>2018-02-18T08:28:48Z</time>
      </trkpt>
      <trkpt lat="50.63808" lon="3.77818">
        <ele>31.86</ele>
        <time>2018-02-18T08:29:02Z</time>
      </trkpt>
      <trkpt lat="50.63806" lon="3.77808">
        <ele>32.82</ele>
        <time>2018-02-18T08:29:09Z</time>
      </trkpt>
      <trkpt lat="50.63804" lon="3.77806">
        <ele>32.82</ele>
        <time>2018-02-18T08:29:11Z</time>
      </trkpt>
      <trkpt lat="50.63794" lon="3.77792">
        <ele>31.38</ele>
        <time>2018-02-18T08:29:24Z</time>
      </trkpt>
      <trkpt lat="50.63782" lon="3.77783">
        <ele>31.38</ele>
        <time>2018-02-18T08:29:37Z</time>
      </trkpt>
      <trkpt lat="50.63764" lon="3.77774">
        <ele>31.38</ele>
        <time>2018-02-18T08:29:53Z</time>
      </trkpt>
      <trkpt lat="50.63748" lon="3.77766">
        <ele>31.38</ele>
        <time>2018-02-18T08:30:08Z</time>
      </trkpt>
      <trkpt lat="50.63748" lon="3.77761">
        <ele>31.38</ele>
        <time>2018-02-18T08:30:11Z</time>
      </trkpt>
      <trkpt lat="50.63757" lon="3.77741">
        <ele>30.9</ele>
        <time>2018-02-18T08:30:29Z</time>
      </trkpt>
      <trkpt lat="50.63762" lon="3.77742">
        <ele>30.9</ele>
        <time>2018-02-18T08:30:45Z</time>
      </trkpt>
      <trkpt lat="50.63759" lon="3.77734">
        <ele>30.42</ele>
        <time>2018-02-18T08:31:08Z</time>
      </trkpt>
      <trkpt lat="50.6377" lon="3.77727">
        <ele>30.42</ele>
        <time>2018-02-18T08:31:35Z</time>
      </trkpt>
      <trkpt lat="50.63764" lon="3.77734">
        <ele>29.94</ele>
        <time>2018-02-18T08:32:03Z</time>
      </trkpt>
      <trkpt lat="50.63751" lon="3.7773">
        <ele>29.46</ele>
        <time>2018-02-18T08:32:23Z</time>
      </trkpt>
      <trkpt lat="50.6375" lon="3.77738">
        <ele>29.46</ele>
        <time>2018-02-18T08:32:30Z</time>
      </trkpt>
      <trkpt lat="50.63748" lon="3.77757">
        <ele>28.98</ele>
        <time>2018-02-18T08:32:43Z</time>
      </trkpt>
      <trkpt lat="50.63741" lon="3.77766">
        <ele>29.46</ele>
        <time>2018-02-18T08:32:55Z</time>
      </trkpt>
      <trkpt lat="50.63736" lon="3.77763">
        <ele>29.46</ele>
        <time>2018-02-18T08:33:02Z</time>
      </trkpt>
      <trkpt lat="50.63719" lon="3.77758">
        <ele>28.98</ele>
        <time>2018-02-18T08:33:17Z</time>
      </trkpt>
      <trkpt lat="50.63705" lon="3.77749">
        <ele>28.98</ele>
        <time>2018-02-18T08:33:31Z</time>
      </trkpt>
      <trkpt lat="50.63682" lon="3.77741">
        <ele>28.98</ele>
        <time>2018-02-18T08:33:49Z</time>
      </trkpt>
      <trkpt lat="50.63671" lon="3.7774">
        <ele>28.98</ele>
        <time>2018-02-18T08:33:57Z</time>
      </trkpt>
      <trkpt lat="50.63652" lon="3.77745">
        <ele>28.5</ele>
        <time>2018-02-18T08:34:14Z</time>
      </trkpt>
      <trkpt lat="50.63639" lon="3.77725">
        <ele>28.5</ele>
        <time>2018-02-18T08:34:29Z</time>
      </trkpt>
      <trkpt lat="50.63639" lon="3.77702">
        <ele>28.5</ele>
        <time>2018-02-18T08:34:42Z</time>
      </trkpt>
      <trkpt lat="50.63641" lon="3.77671">
        <ele>28.5</ele>
        <time>2018-02-18T08:34:58Z</time>
      </trkpt>
      <trkpt lat="50.63641" lon="3.77643">
        <ele>28.5</ele>
        <time>2018-02-18T08:35:11Z</time>
      </trkpt>
      <trkpt lat="50.63641" lon="3.77602">
        <ele>28.02</ele>
        <time>2018-02-18T08:35:29Z</time>
      </trkpt>
      <trkpt lat="50.63637" lon="3.77571">
        <ele>27.53</ele>
        <time>2018-02-18T08:35:44Z</time>
      </trkpt>
      <trkpt lat="50.63636" lon="3.77542">
        <ele>27.53</ele>
        <time>2018-02-18T08:36:00Z</time>
      </trkpt>
      <trkpt lat="50.63636" lon="3.77516">
        <ele>27.05</ele>
        <time>2018-02-18T08:36:15Z</time>
      </trkpt>
      <trkpt lat="50.63636" lon="3.77501">
        <ele>29.46</ele>
        <time>2018-02-18T08:36:32Z</time>
      </trkpt>
      <trkpt lat="50.63635" lon="3.77488">
        <ele>31.86</ele>
        <time>2018-02-18T08:36:48Z</time>
      </trkpt>
      <trkpt lat="50.63634" lon="3.77466">
        <ele>31.86</ele>
        <time>2018-02-18T08:37:00Z</time>
      </trkpt>
      <trkpt lat="50.63632" lon="3.77461">
        <ele>31.86</ele>
        <time>2018-02-18T08:37:14Z</time>
      </trkpt>
      <trkpt lat="50.63626" lon="3.77457">
        <ele>28.5</ele>
        <time>2018-02-18T08:37:27Z</time>
      </trkpt>
      <trkpt lat="50.63612" lon="3.77465">
        <ele>27.53</ele>
        <time>2018-02-18T08:37:41Z</time>
      </trkpt>
      <trkpt lat="50.63606" lon="3.77465">
        <ele>27.05</ele>
        <time>2018-02-18T08:37:46Z</time>
      </trkpt>
      <trkpt lat="50.63594" lon="3.77463">
        <ele>27.05</ele>
        <time>2018-02-18T08:37:58Z</time>
      </trkpt>
      <trkpt lat="50.6359" lon="3.77445">
        <ele>27.05</ele>
        <time>2018-02-18T08:38:11Z</time>
      </trkpt>
      <trkpt lat="50.63585" lon="3.77428">
        <ele>27.05</ele>
        <time>2018-02-18T08:38:18Z</time>
      </trkpt>
      <trkpt lat="50.63573" lon="3.77405">
        <ele>28.02</ele>
        <time>2018-02-18T08:38:32Z</time>
      </trkpt>
      <trkpt lat="50.63559" lon="3.77385">
        <ele>29.46</ele>
        <time>2018-02-18T08:38:46Z</time>
      </trkpt>
      <trkpt lat="50.63548" lon="3.77358">
        <ele>30.9</ele>
        <time>2018-02-18T08:39:03Z</time>
      </trkpt>
      <trkpt lat="50.63536" lon="3.77336">
        <ele>31.86</ele>
        <time>2018-02-18T08:39:19Z</time>
      </trkpt>
      <trkpt lat="50.63529" lon="3.77335">
        <ele>31.86</ele>
        <time>2018-02-18T08:39:26Z</time>
      </trkpt>
      <trkpt lat="50.63526" lon="3.77316">
        <ele>31.86</ele>
        <time>2018-02-18T08:39:38Z</time>
      </trkpt>
      <trkpt lat="50.63519" lon="3.77302">
        <ele>31.86</ele>
        <time>2018-02-18T08:39:53Z</time>
      </trkpt>
      <trkpt lat="50.63518" lon="3.77293">
        <ele>31.86</ele>
        <time>2018-02-18T08:40:01Z</time>
      </trkpt>
      <trkpt lat="50.63517" lon="3.77271">
        <ele>31.86</ele>
        <time>2018-02-18T08:40:13Z</time>
      </trkpt>
      <trkpt lat="50.63517" lon="3.77256">
        <ele>32.34</ele>
        <time>2018-02-18T08:40:21Z</time>
      </trkpt>
      <trkpt lat="50.63514" lon="3.77237">
        <ele>32.82</ele>
        <time>2018-02-18T08:40:30Z</time>
      </trkpt>
      <trkpt lat="50.63514" lon="3.7722">
        <ele>33.3</ele>
        <time>2018-02-18T08:40:42Z</time>
      </trkpt>
      <trkpt lat="50.63509" lon="3.77209">
        <ele>33.78</ele>
        <time>2018-02-18T08:40:51Z</time>
      </trkpt>
      <trkpt lat="50.63503" lon="3.77185">
        <ele>33.78</ele>
        <time>2018-02-18T08:41:03Z</time>
      </trkpt>
      <trkpt lat="50.635" lon="3.77173">
        <ele>34.26</ele>
        <time>2018-02-18T08:41:08Z</time>
      </trkpt>
      <trkpt lat="50.63498" lon="3.77166">
        <ele>34.26</ele>
        <time>2018-02-18T08:41:11Z</time>
      </trkpt>
      <trkpt lat="50.63496" lon="3.77157">
        <ele>34.74</ele>
        <time>2018-02-18T08:41:15Z</time>
      </trkpt>
      <trkpt lat="50.63492" lon="3.77128">
        <ele>34.74</ele>
        <time>2018-02-18T08:41:31Z</time>
      </trkpt>
      <trkpt lat="50.6349" lon="3.77106">
        <ele>35.23</ele>
        <time>2018-02-18T08:41:44Z</time>
      </trkpt>
      <trkpt lat="50.6349" lon="3.77085">
        <ele>35.71</ele>
        <time>2018-02-18T08:41:57Z</time>
      </trkpt>
      <trkpt lat="50.6349" lon="3.77064">
        <ele>36.19</ele>
        <time>2018-02-18T08:42:10Z</time>
      </trkpt>
      <trkpt lat="50.6349" lon="3.77046">
        <ele>36.19</ele>
        <time>2018-02-18T08:42:19Z</time>
      </trkpt>
      <trkpt lat="50.6349" lon="3.7704">
        <ele>36.67</ele>
        <time>2018-02-18T08:42:21Z</time>
      </trkpt>
      <trkpt lat="50.6349" lon="3.77025">
        <ele>37.15</ele>
        <time>2018-02-18T08:42:27Z</time>
      </trkpt>
      <trkpt lat="50.63492" lon="3.77004">
        <ele>37.15</ele>
        <time>2018-02-18T08:42:40Z</time>
      </trkpt>
      <trkpt lat="50.63493" lon="3.77001">
        <ele>37.15</ele>
        <time>2018-02-18T08:42:42Z</time>
      </trkpt>
      <trkpt lat="50.63493" lon="3.76969">
        <ele>38.59</ele>
        <time>2018-02-18T08:42:57Z</time>
      </trkpt>
      <trkpt lat="50.63497" lon="3.76951">
        <ele>38.59</ele>
        <time>2018-02-18T08:43:09Z</time>
      </trkpt>
      <trkpt lat="50.63502" lon="3.76918">
        <ele>39.07</ele>
        <time>2018-02-18T08:43:25Z</time>
      </trkpt>
      <trkpt lat="50.63503" lon="3.76884">
        <ele>40.03</ele>
        <time>2018-02-18T08:43:41Z</time>
      </trkpt>
      <trkpt lat="50.63507" lon="3.76858">
        <ele>40.99</ele>
        <time>2018-02-18T08:43:56Z</time>
      </trkpt>
      <trkpt lat="50.63506" lon="3.76828">
        <ele>42.44</ele>
        <time>2018-02-18T08:44:10Z</time>
      </trkpt>
      <trkpt lat="50.63508" lon="3.76798">
        <ele>43.4</ele>
        <time>2018-02-18T08:44:24Z</time>
      </trkpt>
      <trkpt lat="50.63508" lon="3.76767">
        <ele>44.36</ele>
        <time>2018-02-18T08:44:39Z</time>
      </trkpt>
      <trkpt lat="50.6351" lon="3.76735">
        <ele>45.32</ele>
        <time>2018-02-18T08:44:55Z</time>
      </trkpt>
      <trkpt lat="50.63515" lon="3.76706">
        <ele>46.76</ele>
        <time>2018-02-18T08:45:13Z</time>
      </trkpt>
      <trkpt lat="50.63521" lon="3.76678">
        <ele>46.76</ele>
        <time>2018-02-18T08:45:29Z</time>
      </trkpt>
      <trkpt lat="50.63527" lon="3.76661">
        <ele>46.76</ele>
        <time>2018-02-18T08:45:40Z</time>
      </trkpt>
      <trkpt lat="50.63538" lon="3.76635">
        <ele>46.76</ele>
        <time>2018-02-18T08:45:57Z</time>
      </trkpt>
      <trkpt lat="50.63548" lon="3.76612">
        <ele>45.32</ele>
        <time>2018-02-18T08:46:12Z</time>
      </trkpt>
      <trkpt lat="50.63557" lon="3.76585">
        <ele>44.36</ele>
        <time>2018-02-18T08:46:26Z</time>
      </trkpt>
      <trkpt lat="50.63564" lon="3.7656">
        <ele>43.88</ele>
        <time>2018-02-18T08:46:40Z</time>
      </trkpt>
      <trkpt lat="50.63569" lon="3.76538">
        <ele>43.4</ele>
        <time>2018-02-18T08:46:53Z</time>
      </trkpt>
      <trkpt lat="50.63577" lon="3.76508">
        <ele>42.44</ele>
        <time>2018-02-18T08:47:07Z</time>
      </trkpt>
      <trkpt lat="50.63585" lon="3.76513">
        <ele>42.44</ele>
        <time>2018-02-18T08:47:14Z</time>
      </trkpt>
      <trkpt lat="50.63605" lon="3.76526">
        <ele>41.47</ele>
        <time>2018-02-18T08:47:31Z</time>
      </trkpt>
      <trkpt lat="50.63624" lon="3.76538">
        <ele>40.99</ele>
        <time>2018-02-18T08:47:46Z</time>
      </trkpt>
      <trkpt lat="50.63645" lon="3.7654">
        <ele>40.51</ele>
        <time>2018-02-18T08:48:00Z</time>
      </trkpt>
      <trkpt lat="50.63666" lon="3.76541">
        <ele>38.59</ele>
        <time>2018-02-18T08:48:15Z</time>
      </trkpt>
      <trkpt lat="50.63685" lon="3.76542">
        <ele>38.11</ele>
        <time>2018-02-18T08:48:30Z</time>
      </trkpt>
      <trkpt lat="50.63707" lon="3.76546">
        <ele>37.15</ele>
        <time>2018-02-18T08:48:46Z</time>
      </trkpt>
      <trkpt lat="50.63726" lon="3.76553">
        <ele>36.67</ele>
        <time>2018-02-18T08:49:01Z</time>
      </trkpt>
      <trkpt lat="50.63746" lon="3.76565">
        <ele>35.71</ele>
        <time>2018-02-18T08:49:18Z</time>
      </trkpt>
      <trkpt lat="50.6376" lon="3.76573">
        <ele>35.71</ele>
        <time>2018-02-18T08:49:33Z</time>
      </trkpt>
      <trkpt lat="50.63783" lon="3.76588">
        <ele>35.71</ele>
        <time>2018-02-18T08:49:51Z</time>
      </trkpt>
      <trkpt lat="50.63796" lon="3.76604">
        <ele>35.71</ele>
        <time>2018-02-18T08:50:04Z</time>
      </trkpt>
      <trkpt lat="50.63799" lon="3.7661">
        <ele>35.23</ele>
        <time>2018-02-18T08:50:08Z</time>
      </trkpt>
      <trkpt lat="50.63818" lon="3.76627">
        <ele>34.74</ele>
        <time>2018-02-18T08:50:25Z</time>
      </trkpt>
      <trkpt lat="50.63819" lon="3.76627">
        <ele>34.74</ele>
        <time>2018-02-18T08:50:26Z</time>
      </trkpt>
      <trkpt lat="50.6382" lon="3.76624">
        <ele>34.74</ele>
        <time>2018-02-18T08:50:30Z</time>
      </trkpt>
      <trkpt lat="50.63842" lon="3.76635">
        <ele>34.26</ele>
        <time>2018-02-18T08:50:44Z</time>
      </trkpt>
      <trkpt lat="50.63844" lon="3.76638">
        <ele>34.26</ele>
        <time>2018-02-18T08:50:46Z</time>
      </trkpt>
      <trkpt lat="50.63846" lon="3.76647">
        <ele>34.26</ele>
        <time>2018-02-18T08:50:50Z</time>
      </trkpt>
      <trkpt lat="50.63848" lon="3.76656">
        <ele>34.26</ele>
        <time>2018-02-18T08:50:55Z</time>
      </trkpt>
      <trkpt lat="50.63849" lon="3.76672">
        <ele>33.78</ele>
        <time>2018-02-18T08:51:02Z</time>
      </trkpt>
      <trkpt lat="50.63851" lon="3.76684">
        <ele>33.78</ele>
        <time>2018-02-18T08:51:07Z</time>
      </trkpt>
      <trkpt lat="50.63855" lon="3.76715">
        <ele>33.78</ele>
        <time>2018-02-18T08:51:22Z</time>
      </trkpt>
      <trkpt lat="50.63855" lon="3.7673">
        <ele>33.3</ele>
        <time>2018-02-18T08:51:30Z</time>
      </trkpt>
      <trkpt lat="50.63859" lon="3.76758">
        <ele>33.3</ele>
        <time>2018-02-18T08:51:44Z</time>
      </trkpt>
      <trkpt lat="50.63862" lon="3.76754">
        <ele>33.3</ele>
        <time>2018-02-18T08:52:08Z</time>
      </trkpt>
      <trkpt lat="50.63861" lon="3.76756">
        <ele>33.3</ele>
        <time>2018-02-18T08:52:33Z</time>
      </trkpt>
      <trkpt lat="50.63863" lon="3.76769">
        <ele>32.82</ele>
        <time>2018-02-18T08:52:50Z</time>
      </trkpt>
      <trkpt lat="50.63863" lon="3.76776">
        <ele>32.82</ele>
        <time>2018-02-18T08:52:54Z</time>
      </trkpt>
      <trkpt lat="50.63868" lon="3.76797">
        <ele>32.34</ele>
        <time>2018-02-18T08:53:06Z</time>
      </trkpt>
      <trkpt lat="50.63872" lon="3.76817">
        <ele>32.34</ele>
        <time>2018-02-18T08:53:14Z</time>
      </trkpt>
      <trkpt lat="50.6388" lon="3.76855">
        <ele>32.34</ele>
        <time>2018-02-18T08:53:32Z</time>
      </trkpt>
      <trkpt lat="50.63883" lon="3.76868">
        <ele>32.34</ele>
        <time>2018-02-18T08:53:39Z</time>
      </trkpt>
      <trkpt lat="50.63889" lon="3.76885">
        <ele>32.34</ele>
        <time>2018-02-18T08:53:48Z</time>
      </trkpt>
      <trkpt lat="50.63892" lon="3.76892">
        <ele>31.86</ele>
        <time>2018-02-18T08:53:53Z</time>
      </trkpt>
      <trkpt lat="50.63902" lon="3.76926">
        <ele>31.86</ele>
        <time>2018-02-18T08:54:10Z</time>
      </trkpt>
      <trkpt lat="50.63903" lon="3.76931">
        <ele>31.86</ele>
        <time>2018-02-18T08:54:13Z</time>
      </trkpt>
      <trkpt lat="50.6391" lon="3.76952">
        <ele>31.86</ele>
        <time>2018-02-18T08:54:25Z</time>
      </trkpt>
      <trkpt lat="50.6392" lon="3.76981">
        <ele>31.38</ele>
        <time>2018-02-18T08:54:41Z</time>
      </trkpt>
      <trkpt lat="50.63927" lon="3.77003">
        <ele>31.38</ele>
        <time>2018-02-18T08:54:52Z</time>
      </trkpt>
      <trkpt lat="50.63932" lon="3.7701">
        <ele>31.38</ele>
        <time>2018-02-18T08:54:57Z</time>
      </trkpt>
      <trkpt lat="50.63936" lon="3.77012">
        <ele>31.38</ele>
        <time>2018-02-18T08:55:00Z</time>
      </trkpt>
      <trkpt lat="50.6394" lon="3.77014">
        <ele>31.38</ele>
        <time>2018-02-18T08:55:04Z</time>
      </trkpt>
      <trkpt lat="50.63956" lon="3.77002">
        <ele>31.38</ele>
        <time>2018-02-18T08:55:19Z</time>
      </trkpt>
      <trkpt lat="50.63974" lon="3.76983">
        <ele>31.38</ele>
        <time>2018-02-18T08:55:37Z</time>
      </trkpt>
      <trkpt lat="50.63989" lon="3.76971">
        <ele>31.38</ele>
        <time>2018-02-18T08:55:51Z</time>
      </trkpt>
      <trkpt lat="50.63993" lon="3.76967">
        <ele>32.34</ele>
        <time>2018-02-18T08:55:58Z</time>
      </trkpt>
      <trkpt lat="50.63991" lon="3.7696">
        <ele>35.71</ele>
        <time>2018-02-18T08:56:09Z</time>
      </trkpt>
      <trkpt lat="50.63996" lon="3.7695">
        <ele>37.15</ele>
        <time>2018-02-18T08:56:23Z</time>
      </trkpt>
      <trkpt lat="50.64013" lon="3.7693">
        <ele>37.63</ele>
        <time>2018-02-18T08:56:42Z</time>
      </trkpt>
      <trkpt lat="50.64023" lon="3.76927">
        <ele>35.71</ele>
        <time>2018-02-18T08:56:57Z</time>
      </trkpt>
      <trkpt lat="50.64026" lon="3.76936">
        <ele>32.82</ele>
        <time>2018-02-18T08:57:11Z</time>
      </trkpt>
      <trkpt lat="50.64026" lon="3.76937">
        <ele>32.82</ele>
        <time>2018-02-18T08:57:12Z</time>
      </trkpt>
      <trkpt lat="50.64045" lon="3.76924">
        <ele>32.34</ele>
        <time>2018-02-18T08:57:27Z</time>
      </trkpt>
      <trkpt lat="50.64063" lon="3.76911">
        <ele>32.34</ele>
        <time>2018-02-18T08:57:42Z</time>
      </trkpt>
      <trkpt lat="50.64087" lon="3.76902">
        <ele>32.34</ele>
        <time>2018-02-18T08:57:59Z</time>
      </trkpt>
      <trkpt lat="50.6411" lon="3.76901">
        <ele>32.34</ele>
        <time>2018-02-18T08:58:15Z</time>
      </trkpt>
      <trkpt lat="50.64136" lon="3.769">
        <ele>32.34</ele>
        <time>2018-02-18T08:58:34Z</time>
      </trkpt>
      <trkpt lat="50.64142" lon="3.769">
        <ele>33.3</ele>
        <time>2018-02-18T08:58:39Z</time>
      </trkpt>
      <trkpt lat="50.64143" lon="3.769">
        <ele>33.3</ele>
        <time>2018-02-18T08:58:40Z</time>
      </trkpt>
      <trkpt lat="50.64163" lon="3.76907">
        <ele>33.3</ele>
        <time>2018-02-18T08:58:58Z</time>
      </trkpt>
      <trkpt lat="50.64188" lon="3.76918">
        <ele>33.78</ele>
        <time>2018-02-18T08:59:17Z</time>
      </trkpt>
      <trkpt lat="50.64217" lon="3.76928">
        <ele>33.78</ele>
        <time>2018-02-18T08:59:36Z</time>
      </trkpt>
      <trkpt lat="50.64245" lon="3.76941">
        <ele>33.78</ele>
        <time>2018-02-18T08:59:56Z</time>
      </trkpt>
      <trkpt lat="50.64268" lon="3.76953">
        <ele>33.78</ele>
        <time>2018-02-18T09:00:16Z</time>
      </trkpt>
      <trkpt lat="50.64292" lon="3.76966">
        <ele>33.78</ele>
        <time>2018-02-18T09:00:34Z</time>
      </trkpt>
      <trkpt lat="50.6431" lon="3.76977">
        <ele>33.78</ele>
        <time>2018-02-18T09:00:49Z</time>
      </trkpt>
      <trkpt lat="50.64339" lon="3.7699">
        <ele>33.78</ele>
        <time>2018-02-18T09:01:10Z</time>
      </trkpt>
      <trkpt lat="50.64361" lon="3.77004">
        <ele>32.82</ele>
        <time>2018-02-18T09:01:27Z</time>
      </trkpt>
      <trkpt lat="50.64381" lon="3.77012">
        <ele>32.82</ele>
        <time>2018-02-18T09:01:43Z</time>
      </trkpt>
      <trkpt lat="50.64402" lon="3.7702">
        <ele>32.34</ele>
        <time>2018-02-18T09:01:58Z</time>
      </trkpt>
      <trkpt lat="50.64413" lon="3.77003">
        <ele>31.86</ele>
        <time>2018-02-18T09:02:11Z</time>
      </trkpt>
      <trkpt lat="50.64412" lon="3.76963">
        <ele>31.38</ele>
        <time>2018-02-18T09:02:30Z</time>
      </trkpt>
      <trkpt lat="50.64417" lon="3.76927">
        <ele>30.9</ele>
        <time>2018-02-18T09:02:47Z</time>
      </trkpt>
      <trkpt lat="50.64422" lon="3.76888">
        <ele>30.9</ele>
        <time>2018-02-18T09:03:07Z</time>
      </trkpt>
      <trkpt lat="50.64428" lon="3.76841">
        <ele>30.9</ele>
        <time>2018-02-18T09:03:29Z</time>
      </trkpt>
      <trkpt lat="50.64434" lon="3.76799">
        <ele>30.9</ele>
        <time>2018-02-18T09:03:49Z</time>
      </trkpt>
      <trkpt lat="50.64439" lon="3.76759">
        <ele>30.9</ele>
        <time>2018-02-18T09:04:07Z</time>
      </trkpt>
      <trkpt lat="50.6444" lon="3.76718">
        <ele>30.9</ele>
        <time>2018-02-18T09:04:27Z</time>
      </trkpt>
      <trkpt lat="50.64437" lon="3.7668">
        <ele>30.9</ele>
        <time>2018-02-18T09:04:46Z</time>
      </trkpt>
      <trkpt lat="50.64429" lon="3.76642">
        <ele>29.94</ele>
        <time>2018-02-18T09:05:05Z</time>
      </trkpt>
      <trkpt lat="50.6442" lon="3.76614">
        <ele>29.46</ele>
        <time>2018-02-18T09:05:19Z</time>
      </trkpt>
      <trkpt lat="50.64404" lon="3.76583">
        <ele>29.46</ele>
        <time>2018-02-18T09:05:37Z</time>
      </trkpt>
      <trkpt lat="50.64389" lon="3.76556">
        <ele>28.98</ele>
        <time>2018-02-18T09:05:55Z</time>
      </trkpt>
      <trkpt lat="50.6438" lon="3.76532">
        <ele>28.5</ele>
        <time>2018-02-18T09:06:08Z</time>
      </trkpt>
      <trkpt lat="50.64375" lon="3.76518">
        <ele>28.5</ele>
        <time>2018-02-18T09:06:15Z</time>
      </trkpt>
      <trkpt lat="50.6437" lon="3.76479">
        <ele>28.5</ele>
        <time>2018-02-18T09:06:31Z</time>
      </trkpt>
      <trkpt lat="50.64367" lon="3.76457">
        <ele>28.5</ele>
        <time>2018-02-18T09:06:42Z</time>
      </trkpt>
      <trkpt lat="50.64361" lon="3.76429">
        <ele>29.46</ele>
        <time>2018-02-18T09:06:55Z</time>
      </trkpt>
      <trkpt lat="50.64355" lon="3.76392">
        <ele>29.94</ele>
        <time>2018-02-18T09:07:12Z</time>
      </trkpt>
      <trkpt lat="50.64347" lon="3.76356">
        <ele>29.94</ele>
        <time>2018-02-18T09:07:31Z</time>
      </trkpt>
      <trkpt lat="50.64337" lon="3.76326">
        <ele>29.94</ele>
        <time>2018-02-18T09:07:47Z</time>
      </trkpt>
      <trkpt lat="50.6433" lon="3.76302">
        <ele>29.94</ele>
        <time>2018-02-18T09:07:58Z</time>
      </trkpt>
      <trkpt lat="50.64321" lon="3.76273">
        <ele>29.94</ele>
        <time>2018-02-18T09:08:14Z</time>
      </trkpt>
      <trkpt lat="50.64313" lon="3.76248">
        <ele>29.94</ele>
        <time>2018-02-18T09:08:28Z</time>
      </trkpt>
      <trkpt lat="50.64302" lon="3.76211">
        <ele>29.94</ele>
        <time>2018-02-18T09:08:46Z</time>
      </trkpt>
      <trkpt lat="50.64291" lon="3.76178">
        <ele>29.94</ele>
        <time>2018-02-18T09:09:02Z</time>
      </trkpt>
      <trkpt lat="50.64284" lon="3.76139">
        <ele>29.94</ele>
        <time>2018-02-18T09:09:20Z</time>
      </trkpt>
      <trkpt lat="50.64281" lon="3.76101">
        <ele>29.94</ele>
        <time>2018-02-18T09:09:38Z</time>
      </trkpt>
      <trkpt lat="50.64277" lon="3.76064">
        <ele>29.94</ele>
        <time>2018-02-18T09:09:55Z</time>
      </trkpt>
      <trkpt lat="50.64271" lon="3.76027">
        <ele>29.94</ele>
        <time>2018-02-18T09:10:13Z</time>
      </trkpt>
      <trkpt lat="50.64265" lon="3.76003">
        <ele>29.94</ele>
        <time>2018-02-18T09:10:24Z</time>
      </trkpt>
      <trkpt lat="50.64265" lon="3.75999">
        <ele>29.94</ele>
        <time>2018-02-18T09:10:26Z</time>
      </trkpt>
      <trkpt lat="50.6426" lon="3.75974">
        <ele>29.94</ele>
        <time>2018-02-18T09:10:39Z</time>
      </trkpt>
      <trkpt lat="50.64254" lon="3.75942">
        <ele>29.94</ele>
        <time>2018-02-18T09:10:53Z</time>
      </trkpt>
      <trkpt lat="50.64245" lon="3.75909">
        <ele>29.94</ele>
        <time>2018-02-18T09:11:10Z</time>
      </trkpt>
      <trkpt lat="50.64239" lon="3.75877">
        <ele>29.94</ele>
        <time>2018-02-18T09:11:26Z</time>
      </trkpt>
      <trkpt lat="50.64232" lon="3.75841">
        <ele>29.94</ele>
        <time>2018-02-18T09:11:43Z</time>
      </trkpt>
      <trkpt lat="50.64225" lon="3.75795">
        <ele>30.42</ele>
        <time>2018-02-18T09:12:04Z</time>
      </trkpt>
      <trkpt lat="50.64217" lon="3.7576">
        <ele>30.42</ele>
        <time>2018-02-18T09:12:20Z</time>
      </trkpt>
      <trkpt lat="50.64213" lon="3.75726">
        <ele>30.9</ele>
        <time>2018-02-18T09:12:37Z</time>
      </trkpt>
      <trkpt lat="50.64208" lon="3.75693">
        <ele>31.38</ele>
        <time>2018-02-18T09:12:53Z</time>
      </trkpt>
      <trkpt lat="50.64197" lon="3.75659">
        <ele>31.38</ele>
        <time>2018-02-18T09:13:11Z</time>
      </trkpt>
      <trkpt lat="50.64179" lon="3.75628">
        <ele>31.86</ele>
        <time>2018-02-18T09:13:29Z</time>
      </trkpt>
      <trkpt lat="50.64172" lon="3.75621">
        <ele>31.86</ele>
        <time>2018-02-18T09:13:35Z</time>
      </trkpt>
      <trkpt lat="50.64158" lon="3.75592">
        <ele>32.34</ele>
        <time>2018-02-18T09:13:54Z</time>
      </trkpt>
      <trkpt lat="50.64156" lon="3.7556">
        <ele>32.82</ele>
        <time>2018-02-18T09:14:10Z</time>
      </trkpt>
      <trkpt lat="50.64157" lon="3.75525">
        <ele>32.82</ele>
        <time>2018-02-18T09:14:26Z</time>
      </trkpt>
      <trkpt lat="50.64157" lon="3.75494">
        <ele>33.3</ele>
        <time>2018-02-18T09:14:40Z</time>
      </trkpt>
      <trkpt lat="50.64156" lon="3.75467">
        <ele>33.3</ele>
        <time>2018-02-18T09:14:53Z</time>
      </trkpt>
      <trkpt lat="50.64153" lon="3.75464">
        <ele>33.3</ele>
        <time>2018-02-18T09:15:06Z</time>
      </trkpt>
      <trkpt lat="50.64153" lon="3.75432">
        <ele>33.3</ele>
        <time>2018-02-18T09:15:22Z</time>
      </trkpt>
      <trkpt lat="50.64151" lon="3.75389">
        <ele>33.78</ele>
        <time>2018-02-18T09:15:42Z</time>
      </trkpt>
      <trkpt lat="50.64149" lon="3.75346">
        <ele>34.74</ele>
        <time>2018-02-18T09:16:02Z</time>
      </trkpt>
      <trkpt lat="50.64152" lon="3.7531">
        <ele>36.19</ele>
        <time>2018-02-18T09:16:19Z</time>
      </trkpt>
      <trkpt lat="50.64159" lon="3.75265">
        <ele>37.63</ele>
        <time>2018-02-18T09:16:41Z</time>
      </trkpt>
      <trkpt lat="50.64166" lon="3.75226">
        <ele>38.11</ele>
        <time>2018-02-18T09:16:59Z</time>
      </trkpt>
      <trkpt lat="50.64173" lon="3.75192">
        <ele>39.07</ele>
        <time>2018-02-18T09:17:16Z</time>
      </trkpt>
      <trkpt lat="50.64179" lon="3.75161">
        <ele>40.03</ele>
        <time>2018-02-18T09:17:33Z</time>
      </trkpt>
      <trkpt lat="50.6419" lon="3.75118">
        <ele>40.99</ele>
        <time>2018-02-18T09:17:55Z</time>
      </trkpt>
      <trkpt lat="50.642" lon="3.75076">
        <ele>41.95</ele>
        <time>2018-02-18T09:18:16Z</time>
      </trkpt>
      <trkpt lat="50.64218" lon="3.75072">
        <ele>42.92</ele>
        <time>2018-02-18T09:18:33Z</time>
      </trkpt>
      <trkpt lat="50.6424" lon="3.75098">
        <ele>42.92</ele>
        <time>2018-02-18T09:18:53Z</time>
      </trkpt>
      <trkpt lat="50.6426" lon="3.75122">
        <ele>42.92</ele>
        <time>2018-02-18T09:19:12Z</time>
      </trkpt>
      <trkpt lat="50.64281" lon="3.75141">
        <ele>40.99</ele>
        <time>2018-02-18T09:19:30Z</time>
      </trkpt>
      <trkpt lat="50.64302" lon="3.7515">
        <ele>40.99</ele>
        <time>2018-02-18T09:19:46Z</time>
      </trkpt>
      <trkpt lat="50.64324" lon="3.7516">
        <ele>40.99</ele>
        <time>2018-02-18T09:20:02Z</time>
      </trkpt>
      <trkpt lat="50.64342" lon="3.75166">
        <ele>40.03</ele>
        <time>2018-02-18T09:20:17Z</time>
      </trkpt>
      <trkpt lat="50.64362" lon="3.75177">
        <ele>40.03</ele>
        <time>2018-02-18T09:20:31Z</time>
      </trkpt>
      <trkpt lat="50.64383" lon="3.75188">
        <ele>40.03</ele>
        <time>2018-02-18T09:20:47Z</time>
      </trkpt>
      <trkpt lat="50.64404" lon="3.75203">
        <ele>40.03</ele>
        <time>2018-02-18T09:21:05Z</time>
      </trkpt>
      <trkpt lat="50.64421" lon="3.75216">
        <ele>40.03</ele>
        <time>2018-02-18T09:21:21Z</time>
      </trkpt>
      <trkpt lat="50.64446" lon="3.75236">
        <ele>40.03</ele>
        <time>2018-02-18T09:21:42Z</time>
      </trkpt>
      <trkpt lat="50.64467" lon="3.75254">
        <ele>39.55</ele>
        <time>2018-02-18T09:22:00Z</time>
      </trkpt>
      <trkpt lat="50.64486" lon="3.75268">
        <ele>39.55</ele>
        <time>2018-02-18T09:22:16Z</time>
      </trkpt>
      <trkpt lat="50.64492" lon="3.75274">
        <ele>39.07</ele>
        <time>2018-02-18T09:22:23Z</time>
      </trkpt>
      <trkpt lat="50.64505" lon="3.75287">
        <ele>38.59</ele>
        <time>2018-02-18T09:22:37Z</time>
      </trkpt>
      <trkpt lat="50.64523" lon="3.75303">
        <ele>38.11</ele>
        <time>2018-02-18T09:22:54Z</time>
      </trkpt>
      <trkpt lat="50.64539" lon="3.75318">
        <ele>36.67</ele>
        <time>2018-02-18T09:23:10Z</time>
      </trkpt>
      <trkpt lat="50.64562" lon="3.75341">
        <ele>33.78</ele>
        <time>2018-02-18T09:23:31Z</time>
      </trkpt>
      <trkpt lat="50.64583" lon="3.7536">
        <ele>32.34</ele>
        <time>2018-02-18T09:23:49Z</time>
      </trkpt>
      <trkpt lat="50.6459" lon="3.75366">
        <ele>32.34</ele>
        <time>2018-02-18T09:23:55Z</time>
      </trkpt>
      <trkpt lat="50.64594" lon="3.75372">
        <ele>32.34</ele>
        <time>2018-02-18T09:23:59Z</time>
      </trkpt>
      <trkpt lat="50.64608" lon="3.75388">
        <ele>31.86</ele>
        <time>2018-02-18T09:24:13Z</time>
      </trkpt>
      <trkpt lat="50.64617" lon="3.75403">
        <ele>31.86</ele>
        <time>2018-02-18T09:24:24Z</time>
      </trkpt>
      <trkpt lat="50.64629" lon="3.75424">
        <ele>31.38</ele>
        <time>2018-02-18T09:24:39Z</time>
      </trkpt>
      <trkpt lat="50.64636" lon="3.7544">
        <ele>31.38</ele>
        <time>2018-02-18T09:24:49Z</time>
      </trkpt>
      <trkpt lat="50.64646" lon="3.7547">
        <ele>31.38</ele>
        <time>2018-02-18T09:25:05Z</time>
      </trkpt>
      <trkpt lat="50.64658" lon="3.75494">
        <ele>31.38</ele>
        <time>2018-02-18T09:25:20Z</time>
      </trkpt>
      <trkpt lat="50.64674" lon="3.75511">
        <ele>32.34</ele>
        <time>2018-02-18T09:25:34Z</time>
      </trkpt>
      <trkpt lat="50.6469" lon="3.75516">
        <ele>33.78</ele>
        <time>2018-02-18T09:25:47Z</time>
      </trkpt>
      <trkpt lat="50.64708" lon="3.75515">
        <ele>34.74</ele>
        <time>2018-02-18T09:26:02Z</time>
      </trkpt>
      <trkpt lat="50.64725" lon="3.75513">
        <ele>35.23</ele>
        <time>2018-02-18T09:26:17Z</time>
      </trkpt>
      <trkpt lat="50.64744" lon="3.75507">
        <ele>35.71</ele>
        <time>2018-02-18T09:26:33Z</time>
      </trkpt>
      <trkpt lat="50.64761" lon="3.75501">
        <ele>36.19</ele>
        <time>2018-02-18T09:26:48Z</time>
      </trkpt>
      <trkpt lat="50.64774" lon="3.75497">
        <ele>36.67</ele>
        <time>2018-02-18T09:26:59Z</time>
      </trkpt>
      <trkpt lat="50.64791" lon="3.75489">
        <ele>37.15</ele>
        <time>2018-02-18T09:27:14Z</time>
      </trkpt>
      <trkpt lat="50.64802" lon="3.75485">
        <ele>37.15</ele>
        <time>2018-02-18T09:27:23Z</time>
      </trkpt>
      <trkpt lat="50.6482" lon="3.7548">
        <ele>38.11</ele>
        <time>2018-02-18T09:27:37Z</time>
      </trkpt>
      <trkpt lat="50.64841" lon="3.75459">
        <ele>38.11</ele>
        <time>2018-02-18T09:27:54Z</time>
      </trkpt>
      <trkpt lat="50.64859" lon="3.75424">
        <ele>38.11</ele>
        <time>2018-02-18T09:28:14Z</time>
      </trkpt>
      <trkpt lat="50.64877" lon="3.75389">
        <ele>37.15</ele>
        <time>2018-02-18T09:28:35Z</time>
      </trkpt>
      <trkpt lat="50.64887" lon="3.75359">
        <ele>36.67</ele>
        <time>2018-02-18T09:28:51Z</time>
      </trkpt>
      <trkpt lat="50.64895" lon="3.75329">
        <ele>36.19</ele>
        <time>2018-02-18T09:29:07Z</time>
      </trkpt>
      <trkpt lat="50.649" lon="3.75307">
        <ele>36.19</ele>
        <time>2018-02-18T09:29:21Z</time>
      </trkpt>
      <trkpt lat="50.6491" lon="3.75276">
        <ele>36.19</ele>
        <time>2018-02-18T09:29:36Z</time>
      </trkpt>
      <trkpt lat="50.6492" lon="3.75244">
        <ele>36.19</ele>
        <time>2018-02-18T09:29:52Z</time>
      </trkpt>
      <trkpt lat="50.64922" lon="3.75232">
        <ele>36.19</ele>
        <time>2018-02-18T09:29:57Z</time>
      </trkpt>
      <trkpt lat="50.64932" lon="3.75202">
        <ele>36.19</ele>
        <time>2018-02-18T09:30:12Z</time>
      </trkpt>
      <trkpt lat="50.64939" lon="3.75201">
        <ele>36.19</ele>
        <time>2018-02-18T09:30:18Z</time>
      </trkpt>
      <trkpt lat="50.64946" lon="3.75206">
        <ele>36.19</ele>
        <time>2018-02-18T09:30:24Z</time>
      </trkpt>
      <trkpt lat="50.64956" lon="3.75214">
        <ele>37.63</ele>
        <time>2018-02-18T09:30:32Z</time>
      </trkpt>
      <trkpt lat="50.64977" lon="3.75229">
        <ele>37.63</ele>
        <time>2018-02-18T09:30:49Z</time>
      </trkpt>
      <trkpt lat="50.64995" lon="3.75241">
        <ele>39.07</ele>
        <time>2018-02-18T09:31:04Z</time>
      </trkpt>
      <trkpt lat="50.65012" lon="3.75247">
        <ele>40.03</ele>
        <time>2018-02-18T09:31:18Z</time>
      </trkpt>
      <trkpt lat="50.6503" lon="3.7525">
        <ele>40.51</ele>
        <time>2018-02-18T09:31:33Z</time>
      </trkpt>
      <trkpt lat="50.65053" lon="3.75246">
        <ele>41.47</ele>
        <time>2018-02-18T09:31:51Z</time>
      </trkpt>
      <trkpt lat="50.65073" lon="3.7525">
        <ele>42.44</ele>
        <time>2018-02-18T09:32:07Z</time>
      </trkpt>
      <trkpt lat="50.65096" lon="3.75261">
        <ele>43.4</ele>
        <time>2018-02-18T09:32:27Z</time>
      </trkpt>
      <trkpt lat="50.65106" lon="3.75267">
        <ele>43.4</ele>
        <time>2018-02-18T09:32:35Z</time>
      </trkpt>
      <trkpt lat="50.6512" lon="3.75277">
        <ele>43.88</ele>
        <time>2018-02-18T09:32:47Z</time>
      </trkpt>
      <trkpt lat="50.65143" lon="3.75292">
        <ele>44.36</ele>
        <time>2018-02-18T09:33:04Z</time>
      </trkpt>
      <trkpt lat="50.65164" lon="3.75308">
        <ele>44.36</ele>
        <time>2018-02-18T09:33:21Z</time>
      </trkpt>
      <trkpt lat="50.65184" lon="3.75323">
        <ele>44.84</ele>
        <time>2018-02-18T09:33:39Z</time>
      </trkpt>
      <trkpt lat="50.65197" lon="3.75336">
        <ele>44.84</ele>
        <time>2018-02-18T09:33:54Z</time>
      </trkpt>
      <trkpt lat="50.6521" lon="3.75348">
        <ele>45.32</ele>
        <time>2018-02-18T09:34:05Z</time>
      </trkpt>
      <trkpt lat="50.65228" lon="3.75364">
        <ele>45.32</ele>
        <time>2018-02-18T09:34:17Z</time>
      </trkpt>
      <trkpt lat="50.65239" lon="3.75371">
        <ele>45.8</ele>
        <time>2018-02-18T09:34:26Z</time>
      </trkpt>
      <trkpt lat="50.65245" lon="3.75366">
        <ele>46.28</ele>
        <time>2018-02-18T09:34:31Z</time>
      </trkpt>
      <trkpt lat="50.65263" lon="3.75345">
        <ele>46.28</ele>
        <time>2018-02-18T09:34:48Z</time>
      </trkpt>
      <trkpt lat="50.65274" lon="3.75323">
        <ele>46.28</ele>
        <time>2018-02-18T09:35:02Z</time>
      </trkpt>
      <trkpt lat="50.65288" lon="3.75291">
        <ele>46.76</ele>
        <time>2018-02-18T09:35:19Z</time>
      </trkpt>
      <trkpt lat="50.65298" lon="3.75261">
        <ele>47.24</ele>
        <time>2018-02-18T09:35:34Z</time>
      </trkpt>
      <trkpt lat="50.6531" lon="3.75231">
        <ele>48.2</ele>
        <time>2018-02-18T09:35:51Z</time>
      </trkpt>
      <trkpt lat="50.65324" lon="3.75195">
        <ele>48.68</ele>
        <time>2018-02-18T09:36:10Z</time>
      </trkpt>
      <trkpt lat="50.65336" lon="3.75168">
        <ele>49.65</ele>
        <time>2018-02-18T09:36:25Z</time>
      </trkpt>
      <trkpt lat="50.6535" lon="3.75136">
        <ele>50.13</ele>
        <time>2018-02-18T09:36:43Z</time>
      </trkpt>
      <trkpt lat="50.65362" lon="3.75109">
        <ele>51.09</ele>
        <time>2018-02-18T09:36:59Z</time>
      </trkpt>
      <trkpt lat="50.65377" lon="3.75103">
        <ele>51.57</ele>
        <time>2018-02-18T09:37:14Z</time>
      </trkpt>
      <trkpt lat="50.65388" lon="3.75126">
        <ele>51.57</ele>
        <time>2018-02-18T09:37:27Z</time>
      </trkpt>
      <trkpt lat="50.654" lon="3.75145">
        <ele>51.57</ele>
        <time>2018-02-18T09:37:41Z</time>
      </trkpt>
      <trkpt lat="50.6542" lon="3.7518">
        <ele>50.13</ele>
        <time>2018-02-18T09:38:03Z</time>
      </trkpt>
      <trkpt lat="50.65434" lon="3.75203">
        <ele>48.68</ele>
        <time>2018-02-18T09:38:18Z</time>
      </trkpt>
      <trkpt lat="50.65446" lon="3.75222">
        <ele>47.72</ele>
        <time>2018-02-18T09:38:30Z</time>
      </trkpt>
      <trkpt lat="50.65459" lon="3.75247">
        <ele>46.76</ele>
        <time>2018-02-18T09:38:45Z</time>
      </trkpt>
      <trkpt lat="50.65472" lon="3.75272">
        <ele>45.32</ele>
        <time>2018-02-18T09:38:59Z</time>
      </trkpt>
      <trkpt lat="50.65486" lon="3.75295">
        <ele>43.88</ele>
        <time>2018-02-18T09:39:15Z</time>
      </trkpt>
      <trkpt lat="50.65503" lon="3.75317">
        <ele>42.92</ele>
        <time>2018-02-18T09:39:32Z</time>
      </trkpt>
      <trkpt lat="50.65526" lon="3.75343">
        <ele>41.95</ele>
        <time>2018-02-18T09:39:51Z</time>
      </trkpt>
      <trkpt lat="50.6554" lon="3.75355">
        <ele>40.99</ele>
        <time>2018-02-18T09:40:04Z</time>
      </trkpt>
      <trkpt lat="50.65558" lon="3.75368">
        <ele>40.51</ele>
        <time>2018-02-18T09:40:19Z</time>
      </trkpt>
      <trkpt lat="50.65581" lon="3.75379">
        <ele>40.03</ele>
        <time>2018-02-18T09:40:37Z</time>
      </trkpt>
      <trkpt lat="50.65601" lon="3.75387">
        <ele>39.55</ele>
        <time>2018-02-18T09:40:52Z</time>
      </trkpt>
      <trkpt lat="50.65613" lon="3.75394">
        <ele>39.55</ele>
        <time>2018-02-18T09:41:03Z</time>
      </trkpt>
      <trkpt lat="50.65626" lon="3.754">
        <ele>39.07</ele>
        <time>2018-02-18T09:41:13Z</time>
      </trkpt>
      <trkpt lat="50.65649" lon="3.75417">
        <ele>38.59</ele>
        <time>2018-02-18T09:41:30Z</time>
      </trkpt>
      <trkpt lat="50.65668" lon="3.75432">
        <ele>38.59</ele>
        <time>2018-02-18T09:41:45Z</time>
      </trkpt>
      <trkpt lat="50.65685" lon="3.75452">
        <ele>38.11</ele>
        <time>2018-02-18T09:42:00Z</time>
      </trkpt>
      <trkpt lat="50.65699" lon="3.75476">
        <ele>37.63</ele>
        <time>2018-02-18T09:42:16Z</time>
      </trkpt>
      <trkpt lat="50.65713" lon="3.755">
        <ele>37.63</ele>
        <time>2018-02-18T09:42:31Z</time>
      </trkpt>
      <trkpt lat="50.6572" lon="3.75508">
        <ele>37.15</ele>
        <time>2018-02-18T09:42:38Z</time>
      </trkpt>
      <trkpt lat="50.65722" lon="3.7551">
        <ele>37.15</ele>
        <time>2018-02-18T09:42:40Z</time>
      </trkpt>
      <trkpt lat="50.65724" lon="3.75513">
        <ele>37.15</ele>
        <time>2018-02-18T09:42:42Z</time>
      </trkpt>
      <trkpt lat="50.65749" lon="3.75534">
        <ele>36.67</ele>
        <time>2018-02-18T09:42:59Z</time>
      </trkpt>
      <trkpt lat="50.65752" lon="3.75535">
        <ele>36.67</ele>
        <time>2018-02-18T09:43:01Z</time>
      </trkpt>
      <trkpt lat="50.65758" lon="3.75541">
        <ele>36.67</ele>
        <time>2018-02-18T09:43:05Z</time>
      </trkpt>
      <trkpt lat="50.65767" lon="3.75549">
        <ele>36.67</ele>
        <time>2018-02-18T09:43:11Z</time>
      </trkpt>
      <trkpt lat="50.65779" lon="3.75563">
        <ele>36.67</ele>
        <time>2018-02-18T09:43:21Z</time>
      </trkpt>
      <trkpt lat="50.65784" lon="3.75564">
        <ele>36.67</ele>
        <time>2018-02-18T09:43:26Z</time>
      </trkpt>
      <trkpt lat="50.65792" lon="3.75554">
        <ele>36.67</ele>
        <time>2018-02-18T09:43:35Z</time>
      </trkpt>
      <trkpt lat="50.65807" lon="3.75543">
        <ele>36.67</ele>
        <time>2018-02-18T09:43:46Z</time>
      </trkpt>
      <trkpt lat="50.6582" lon="3.75533">
        <ele>36.67</ele>
        <time>2018-02-18T09:44:00Z</time>
      </trkpt>
      <trkpt lat="50.65823" lon="3.75539">
        <ele>36.67</ele>
        <time>2018-02-18T09:44:04Z</time>
      </trkpt>
      <trkpt lat="50.65833" lon="3.75569">
        <ele>36.19</ele>
        <time>2018-02-18T09:44:20Z</time>
      </trkpt>
      <trkpt lat="50.65842" lon="3.75601">
        <ele>36.19</ele>
        <time>2018-02-18T09:44:35Z</time>
      </trkpt>
      <trkpt lat="50.65849" lon="3.75634">
        <ele>36.67</ele>
        <time>2018-02-18T09:44:51Z</time>
      </trkpt>
      <trkpt lat="50.65856" lon="3.75666">
        <ele>36.67</ele>
        <time>2018-02-18T09:45:08Z</time>
      </trkpt>
      <trkpt lat="50.65862" lon="3.75687">
        <ele>36.67</ele>
        <time>2018-02-18T09:45:18Z</time>
      </trkpt>
      <trkpt lat="50.65869" lon="3.75718">
        <ele>36.19</ele>
        <time>2018-02-18T09:45:35Z</time>
      </trkpt>
      <trkpt lat="50.65875" lon="3.75746">
        <ele>36.67</ele>
        <time>2018-02-18T09:45:49Z</time>
      </trkpt>
      <trkpt lat="50.65882" lon="3.75781">
        <ele>36.67</ele>
        <time>2018-02-18T09:46:07Z</time>
      </trkpt>
      <trkpt lat="50.6589" lon="3.75815">
        <ele>36.67</ele>
        <time>2018-02-18T09:46:24Z</time>
      </trkpt>
      <trkpt lat="50.65896" lon="3.75845">
        <ele>36.67</ele>
        <time>2018-02-18T09:46:38Z</time>
      </trkpt>
      <trkpt lat="50.65897" lon="3.75847">
        <ele>36.67</ele>
        <time>2018-02-18T09:46:39Z</time>
      </trkpt>
      <trkpt lat="50.65904" lon="3.7587">
        <ele>36.67</ele>
        <time>2018-02-18T09:46:50Z</time>
      </trkpt>
      <trkpt lat="50.6592" lon="3.75894">
        <ele>37.63</ele>
        <time>2018-02-18T09:47:06Z</time>
      </trkpt>
      <trkpt lat="50.65933" lon="3.75919">
        <ele>39.55</ele>
        <time>2018-02-18T09:47:22Z</time>
      </trkpt>
      <trkpt lat="50.65946" lon="3.75946">
        <ele>41.47</ele>
        <time>2018-02-18T09:47:39Z</time>
      </trkpt>
      <trkpt lat="50.65948" lon="3.75951">
        <ele>41.95</ele>
        <time>2018-02-18T09:47:42Z</time>
      </trkpt>
      <trkpt lat="50.65952" lon="3.75957">
        <ele>42.44</ele>
        <time>2018-02-18T09:47:46Z</time>
      </trkpt>
      <trkpt lat="50.65965" lon="3.75978">
        <ele>43.4</ele>
        <time>2018-02-18T09:48:00Z</time>
      </trkpt>
      <trkpt lat="50.65981" lon="3.7599">
        <ele>44.36</ele>
        <time>2018-02-18T09:48:14Z</time>
      </trkpt>
      <trkpt lat="50.65999" lon="3.76">
        <ele>45.32</ele>
        <time>2018-02-18T09:48:29Z</time>
      </trkpt>
      <trkpt lat="50.66003" lon="3.76004">
        <ele>45.32</ele>
        <time>2018-02-18T09:48:33Z</time>
      </trkpt>
      <trkpt lat="50.6601" lon="3.76008">
        <ele>45.8</ele>
        <time>2018-02-18T09:48:39Z</time>
      </trkpt>
      <trkpt lat="50.66028" lon="3.76028">
        <ele>46.76</ele>
        <time>2018-02-18T09:48:56Z</time>
      </trkpt>
      <trkpt lat="50.66029" lon="3.76029">
        <ele>46.76</ele>
        <time>2018-02-18T09:48:57Z</time>
      </trkpt>
      <trkpt lat="50.66037" lon="3.76041">
        <ele>47.24</ele>
        <time>2018-02-18T09:49:04Z</time>
      </trkpt>
      <trkpt lat="50.66052" lon="3.76063">
        <ele>48.68</ele>
        <time>2018-02-18T09:49:21Z</time>
      </trkpt>
      <trkpt lat="50.66063" lon="3.76086">
        <ele>50.13</ele>
        <time>2018-02-18T09:49:35Z</time>
      </trkpt>
      <trkpt lat="50.66065" lon="3.76104">
        <ele>51.09</ele>
        <time>2018-02-18T09:49:44Z</time>
      </trkpt>
      <trkpt lat="50.66066" lon="3.76134">
        <ele>52.05</ele>
        <time>2018-02-18T09:49:59Z</time>
      </trkpt>
      <trkpt lat="50.66066" lon="3.76166">
        <ele>53.49</ele>
        <time>2018-02-18T09:50:15Z</time>
      </trkpt>
      <trkpt lat="50.66065" lon="3.76191">
        <ele>54.45</ele>
        <time>2018-02-18T09:50:28Z</time>
      </trkpt>
      <trkpt lat="50.6606" lon="3.76226">
        <ele>55.41</ele>
        <time>2018-02-18T09:50:44Z</time>
      </trkpt>
      <trkpt lat="50.66059" lon="3.76234">
        <ele>55.41</ele>
        <time>2018-02-18T09:50:48Z</time>
      </trkpt>
      <trkpt lat="50.6606" lon="3.7624">
        <ele>55.89</ele>
        <time>2018-02-18T09:50:52Z</time>
      </trkpt>
      <trkpt lat="50.66065" lon="3.76272">
        <ele>56.86</ele>
        <time>2018-02-18T09:51:09Z</time>
      </trkpt>
      <trkpt lat="50.6607" lon="3.763">
        <ele>57.34</ele>
        <time>2018-02-18T09:51:23Z</time>
      </trkpt>
      <trkpt lat="50.66075" lon="3.76333">
        <ele>57.82</ele>
        <time>2018-02-18T09:51:40Z</time>
      </trkpt>
      <trkpt lat="50.6607" lon="3.76371">
        <ele>57.82</ele>
        <time>2018-02-18T09:51:56Z</time>
      </trkpt>
      <trkpt lat="50.66069" lon="3.76401">
        <ele>57.82</ele>
        <time>2018-02-18T09:52:10Z</time>
      </trkpt>
      <trkpt lat="50.66065" lon="3.76433">
        <ele>57.82</ele>
        <time>2018-02-18T09:52:25Z</time>
      </trkpt>
      <trkpt lat="50.66065" lon="3.76436">
        <ele>57.82</ele>
        <time>2018-02-18T09:52:26Z</time>
      </trkpt>
      <trkpt lat="50.6606" lon="3.76452">
        <ele>56.37</ele>
        <time>2018-02-18T09:52:33Z</time>
      </trkpt>
      <trkpt lat="50.66059" lon="3.76461">
        <ele>56.37</ele>
        <time>2018-02-18T09:52:37Z</time>
      </trkpt>
      <trkpt lat="50.66058" lon="3.76478">
        <ele>56.37</ele>
        <time>2018-02-18T09:52:45Z</time>
      </trkpt>
      <trkpt lat="50.66058" lon="3.76488">
        <ele>56.37</ele>
        <time>2018-02-18T09:52:50Z</time>
      </trkpt>
      <trkpt lat="50.66052" lon="3.76522">
        <ele>56.37</ele>
        <time>2018-02-18T09:53:07Z</time>
      </trkpt>
      <trkpt lat="50.66051" lon="3.76528">
        <ele>56.37</ele>
        <time>2018-02-18T09:53:09Z</time>
      </trkpt>
      <trkpt lat="50.66051" lon="3.76542">
        <ele>55.89</ele>
        <time>2018-02-18T09:53:15Z</time>
      </trkpt>
      <trkpt lat="50.66048" lon="3.76575">
        <ele>55.89</ele>
        <time>2018-02-18T09:53:30Z</time>
      </trkpt>
      <trkpt lat="50.66047" lon="3.76579">
        <ele>55.89</ele>
        <time>2018-02-18T09:53:32Z</time>
      </trkpt>
      <trkpt lat="50.66045" lon="3.76613">
        <ele>55.41</ele>
        <time>2018-02-18T09:53:47Z</time>
      </trkpt>
      <trkpt lat="50.66046" lon="3.76646">
        <ele>53.97</ele>
        <time>2018-02-18T09:54:03Z</time>
      </trkpt>
      <trkpt lat="50.66051" lon="3.76684">
        <ele>53.01</ele>
        <time>2018-02-18T09:54:19Z</time>
      </trkpt>
      <trkpt lat="50.66055" lon="3.7671">
        <ele>52.53</ele>
        <time>2018-02-18T09:54:32Z</time>
      </trkpt>
      <trkpt lat="50.66056" lon="3.76724">
        <ele>52.05</ele>
        <time>2018-02-18T09:54:38Z</time>
      </trkpt>
      <trkpt lat="50.66059" lon="3.76745">
        <ele>52.05</ele>
        <time>2018-02-18T09:54:49Z</time>
      </trkpt>
      <trkpt lat="50.66064" lon="3.7677">
        <ele>51.57</ele>
        <time>2018-02-18T09:55:01Z</time>
      </trkpt>
      <trkpt lat="50.66068" lon="3.76782">
        <ele>51.57</ele>
        <time>2018-02-18T09:55:07Z</time>
      </trkpt>
      <trkpt lat="50.66068" lon="3.76813">
        <ele>50.13</ele>
        <time>2018-02-18T09:55:22Z</time>
      </trkpt>
      <trkpt lat="50.66064" lon="3.76847">
        <ele>50.13</ele>
        <time>2018-02-18T09:55:37Z</time>
      </trkpt>
      <trkpt lat="50.66062" lon="3.76863">
        <ele>49.65</ele>
        <time>2018-02-18T09:55:45Z</time>
      </trkpt>
      <trkpt lat="50.66057" lon="3.76895">
        <ele>50.13</ele>
        <time>2018-02-18T09:56:00Z</time>
      </trkpt>
      <trkpt lat="50.66051" lon="3.76933">
        <ele>49.16</ele>
        <time>2018-02-18T09:56:18Z</time>
      </trkpt>
      <trkpt lat="50.66047" lon="3.76966">
        <ele>48.68</ele>
        <time>2018-02-18T09:56:33Z</time>
      </trkpt>
      <trkpt lat="50.66046" lon="3.76979">
        <ele>48.68</ele>
        <time>2018-02-18T09:56:40Z</time>
      </trkpt>
      <trkpt lat="50.66046" lon="3.76985">
        <ele>48.68</ele>
        <time>2018-02-18T09:56:43Z</time>
      </trkpt>
      <trkpt lat="50.6604" lon="3.77018">
        <ele>48.68</ele>
        <time>2018-02-18T09:56:59Z</time>
      </trkpt>
      <trkpt lat="50.66034" lon="3.77049">
        <ele>48.2</ele>
        <time>2018-02-18T09:57:13Z</time>
      </trkpt>
      <trkpt lat="50.66032" lon="3.77078">
        <ele>47.72</ele>
        <time>2018-02-18T09:57:27Z</time>
      </trkpt>
      <trkpt lat="50.66027" lon="3.77113">
        <ele>47.72</ele>
        <time>2018-02-18T09:57:44Z</time>
      </trkpt>
      <trkpt lat="50.66024" lon="3.77133">
        <ele>47.72</ele>
        <time>2018-02-18T09:57:53Z</time>
      </trkpt>
      <trkpt lat="50.66024" lon="3.77135">
        <ele>47.24</ele>
        <time>2018-02-18T09:57:54Z</time>
      </trkpt>
      <trkpt lat="50.66024" lon="3.77137">
        <ele>47.24</ele>
        <time>2018-02-18T09:57:55Z</time>
      </trkpt>
      <trkpt lat="50.66024" lon="3.77139">
        <ele>47.24</ele>
        <time>2018-02-18T09:57:56Z</time>
      </trkpt>
      <trkpt lat="50.66024" lon="3.77141">
        <ele>47.24</ele>
        <time>2018-02-18T09:57:57Z</time>
      </trkpt>
      <trkpt lat="50.6602" lon="3.77172">
        <ele>47.24</ele>
        <time>2018-02-18T09:58:11Z</time>
      </trkpt>
      <trkpt lat="50.66016" lon="3.77205">
        <ele>47.24</ele>
        <time>2018-02-18T09:58:28Z</time>
      </trkpt>
      <trkpt lat="50.66011" lon="3.7723">
        <ele>47.24</ele>
        <time>2018-02-18T09:58:39Z</time>
      </trkpt>
      <trkpt lat="50.6601" lon="3.77233">
        <ele>47.24</ele>
        <time>2018-02-18T09:58:40Z</time>
      </trkpt>
      <trkpt lat="50.66007" lon="3.77262">
        <ele>47.24</ele>
        <time>2018-02-18T09:58:53Z</time>
      </trkpt>
      <trkpt lat="50.66007" lon="3.7728">
        <ele>47.24</ele>
        <time>2018-02-18T09:59:03Z</time>
      </trkpt>
      <trkpt lat="50.66006" lon="3.77282">
        <ele>47.24</ele>
        <time>2018-02-18T09:59:04Z</time>
      </trkpt>
      <trkpt lat="50.66006" lon="3.77284">
        <ele>47.24</ele>
        <time>2018-02-18T09:59:05Z</time>
      </trkpt>
      <trkpt lat="50.66005" lon="3.77287">
        <ele>47.24</ele>
        <time>2018-02-18T09:59:06Z</time>
      </trkpt>
      <trkpt lat="50.66005" lon="3.77289">
        <ele>47.24</ele>
        <time>2018-02-18T09:59:07Z</time>
      </trkpt>
      <trkpt lat="50.66004" lon="3.77291">
        <ele>47.24</ele>
        <time>2018-02-18T09:59:08Z</time>
      </trkpt>
      <trkpt lat="50.66004" lon="3.77293">
        <ele>47.24</ele>
        <time>2018-02-18T09:59:09Z</time>
      </trkpt>
      <trkpt lat="50.66001" lon="3.77323">
        <ele>47.24</ele>
        <time>2018-02-18T09:59:25Z</time>
      </trkpt>
      <trkpt lat="50.66" lon="3.77327">
        <ele>47.24</ele>
        <time>2018-02-18T09:59:27Z</time>
      </trkpt>
      <trkpt lat="50.66" lon="3.7733">
        <ele>47.24</ele>
        <time>2018-02-18T09:59:28Z</time>
      </trkpt>
      <trkpt lat="50.65999" lon="3.77332">
        <ele>47.24</ele>
        <time>2018-02-18T09:59:29Z</time>
      </trkpt>
      <trkpt lat="50.65998" lon="3.77334">
        <ele>47.24</ele>
        <time>2018-02-18T09:59:30Z</time>
      </trkpt>
      <trkpt lat="50.65997" lon="3.77337">
        <ele>47.24</ele>
        <time>2018-02-18T09:59:31Z</time>
      </trkpt>
      <trkpt lat="50.65996" lon="3.77339">
        <ele>47.24</ele>
        <time>2018-02-18T09:59:32Z</time>
      </trkpt>
      <trkpt lat="50.65994" lon="3.77351">
        <ele>47.24</ele>
        <time>2018-02-18T09:59:37Z</time>
      </trkpt>
      <trkpt lat="50.65994" lon="3.77357">
        <ele>47.24</ele>
        <time>2018-02-18T09:59:40Z</time>
      </trkpt>
      <trkpt lat="50.65995" lon="3.7737">
        <ele>47.24</ele>
        <time>2018-02-18T09:59:47Z</time>
      </trkpt>
      <trkpt lat="50.65995" lon="3.77372">
        <ele>47.24</ele>
        <time>2018-02-18T09:59:48Z</time>
      </trkpt>
      <trkpt lat="50.65995" lon="3.77374">
        <ele>47.24</ele>
        <time>2018-02-18T09:59:49Z</time>
      </trkpt>
      <trkpt lat="50.65988" lon="3.77408">
        <ele>47.24</ele>
        <time>2018-02-18T10:00:05Z</time>
      </trkpt>
      <trkpt lat="50.65987" lon="3.77427">
        <ele>47.24</ele>
        <time>2018-02-18T10:00:15Z</time>
      </trkpt>
      <trkpt lat="50.65986" lon="3.77429">
        <ele>47.24</ele>
        <time>2018-02-18T10:00:16Z</time>
      </trkpt>
      <trkpt lat="50.65986" lon="3.77431">
        <ele>47.24</ele>
        <time>2018-02-18T10:00:17Z</time>
      </trkpt>
      <trkpt lat="50.65981" lon="3.77464">
        <ele>47.24</ele>
        <time>2018-02-18T10:00:31Z</time>
      </trkpt>
      <trkpt lat="50.65981" lon="3.77468">
        <ele>47.24</ele>
        <time>2018-02-18T10:00:33Z</time>
      </trkpt>
      <trkpt lat="50.6598" lon="3.77475">
        <ele>46.76</ele>
        <time>2018-02-18T10:00:36Z</time>
      </trkpt>
      <trkpt lat="50.65979" lon="3.77498">
        <ele>46.76</ele>
        <time>2018-02-18T10:00:46Z</time>
      </trkpt>
      <trkpt lat="50.65979" lon="3.775">
        <ele>46.76</ele>
        <time>2018-02-18T10:00:47Z</time>
      </trkpt>
      <trkpt lat="50.6598" lon="3.77511">
        <ele>46.76</ele>
        <time>2018-02-18T10:00:53Z</time>
      </trkpt>
      <trkpt lat="50.65983" lon="3.77524">
        <ele>46.76</ele>
        <time>2018-02-18T10:01:01Z</time>
      </trkpt>
      <trkpt lat="50.65983" lon="3.77526">
        <ele>46.76</ele>
        <time>2018-02-18T10:01:02Z</time>
      </trkpt>
      <trkpt lat="50.65983" lon="3.77528">
        <ele>46.76</ele>
        <time>2018-02-18T10:01:03Z</time>
      </trkpt>
      <trkpt lat="50.65983" lon="3.77531">
        <ele>46.76</ele>
        <time>2018-02-18T10:01:04Z</time>
      </trkpt>
      <trkpt lat="50.65982" lon="3.77533">
        <ele>46.76</ele>
        <time>2018-02-18T10:01:05Z</time>
      </trkpt>
      <trkpt lat="50.65981" lon="3.77535">
        <ele>46.76</ele>
        <time>2018-02-18T10:01:06Z</time>
      </trkpt>
      <trkpt lat="50.65983" lon="3.77566">
        <ele>46.28</ele>
        <time>2018-02-18T10:01:19Z</time>
      </trkpt>
      <trkpt lat="50.65983" lon="3.77569">
        <ele>46.28</ele>
        <time>2018-02-18T10:01:20Z</time>
      </trkpt>
      <trkpt lat="50.65982" lon="3.77571">
        <ele>46.28</ele>
        <time>2018-02-18T10:01:21Z</time>
      </trkpt>
      <trkpt lat="50.65983" lon="3.77605">
        <ele>45.32</ele>
        <time>2018-02-18T10:01:36Z</time>
      </trkpt>
      <trkpt lat="50.65984" lon="3.77607">
        <ele>45.32</ele>
        <time>2018-02-18T10:01:37Z</time>
      </trkpt>
      <trkpt lat="50.65984" lon="3.7761">
        <ele>45.32</ele>
        <time>2018-02-18T10:01:38Z</time>
      </trkpt>
      <trkpt lat="50.65984" lon="3.77612">
        <ele>45.32</ele>
        <time>2018-02-18T10:01:39Z</time>
      </trkpt>
      <trkpt lat="50.65985" lon="3.77614">
        <ele>45.32</ele>
        <time>2018-02-18T10:01:40Z</time>
      </trkpt>
      <trkpt lat="50.65985" lon="3.77616">
        <ele>45.32</ele>
        <time>2018-02-18T10:01:41Z</time>
      </trkpt>
      <trkpt lat="50.65986" lon="3.77618">
        <ele>45.32</ele>
        <time>2018-02-18T10:01:42Z</time>
      </trkpt>
      <trkpt lat="50.65986" lon="3.7762">
        <ele>45.32</ele>
        <time>2018-02-18T10:01:43Z</time>
      </trkpt>
      <trkpt lat="50.65986" lon="3.77622">
        <ele>44.84</ele>
        <time>2018-02-18T10:01:44Z</time>
      </trkpt>
      <trkpt lat="50.65987" lon="3.77624">
        <ele>44.84</ele>
        <time>2018-02-18T10:01:45Z</time>
      </trkpt>
      <trkpt lat="50.65988" lon="3.77626">
        <ele>44.84</ele>
        <time>2018-02-18T10:01:46Z</time>
      </trkpt>
      <trkpt lat="50.65988" lon="3.77628">
        <ele>44.84</ele>
        <time>2018-02-18T10:01:47Z</time>
      </trkpt>
      <trkpt lat="50.65988" lon="3.7763">
        <ele>44.84</ele>
        <time>2018-02-18T10:01:48Z</time>
      </trkpt>
      <trkpt lat="50.65989" lon="3.77633">
        <ele>44.84</ele>
        <time>2018-02-18T10:01:49Z</time>
      </trkpt>
      <trkpt lat="50.65988" lon="3.77635">
        <ele>44.84</ele>
        <time>2018-02-18T10:01:50Z</time>
      </trkpt>
      <trkpt lat="50.65988" lon="3.77638">
        <ele>44.84</ele>
        <time>2018-02-18T10:01:51Z</time>
      </trkpt>
      <trkpt lat="50.65988" lon="3.7764">
        <ele>44.84</ele>
        <time>2018-02-18T10:01:52Z</time>
      </trkpt>
      <trkpt lat="50.65989" lon="3.77648">
        <ele>44.84</ele>
        <time>2018-02-18T10:01:56Z</time>
      </trkpt>
      <trkpt lat="50.6599" lon="3.7765">
        <ele>44.84</ele>
        <time>2018-02-18T10:01:57Z</time>
      </trkpt>
      <trkpt lat="50.6599" lon="3.77652">
        <ele>44.36</ele>
        <time>2018-02-18T10:01:58Z</time>
      </trkpt>
      <trkpt lat="50.65991" lon="3.77665">
        <ele>44.36</ele>
        <time>2018-02-18T10:02:05Z</time>
      </trkpt>
      <trkpt lat="50.65991" lon="3.77667">
        <ele>44.36</ele>
        <time>2018-02-18T10:02:06Z</time>
      </trkpt>
      <trkpt lat="50.6599" lon="3.77669">
        <ele>43.88</ele>
        <time>2018-02-18T10:02:07Z</time>
      </trkpt>
      <trkpt lat="50.6599" lon="3.77671">
        <ele>43.88</ele>
        <time>2018-02-18T10:02:08Z</time>
      </trkpt>
      <trkpt lat="50.6599" lon="3.77674">
        <ele>43.88</ele>
        <time>2018-02-18T10:02:09Z</time>
      </trkpt>
      <trkpt lat="50.6599" lon="3.77676">
        <ele>43.88</ele>
        <time>2018-02-18T10:02:10Z</time>
      </trkpt>
      <trkpt lat="50.65991" lon="3.77679">
        <ele>43.88</ele>
        <time>2018-02-18T10:02:11Z</time>
      </trkpt>
      <trkpt lat="50.65991" lon="3.77681">
        <ele>43.88</ele>
        <time>2018-02-18T10:02:12Z</time>
      </trkpt>
      <trkpt lat="50.65992" lon="3.77683">
        <ele>43.88</ele>
        <time>2018-02-18T10:02:13Z</time>
      </trkpt>
      <trkpt lat="50.65992" lon="3.77686">
        <ele>43.88</ele>
        <time>2018-02-18T10:02:14Z</time>
      </trkpt>
      <trkpt lat="50.65993" lon="3.77688">
        <ele>43.88</ele>
        <time>2018-02-18T10:02:15Z</time>
      </trkpt>
      <trkpt lat="50.65994" lon="3.77706">
        <ele>43.4</ele>
        <time>2018-02-18T10:02:23Z</time>
      </trkpt>
      <trkpt lat="50.65994" lon="3.77708">
        <ele>43.4</ele>
        <time>2018-02-18T10:02:24Z</time>
      </trkpt>
      <trkpt lat="50.65995" lon="3.77737">
        <ele>42.92</ele>
        <time>2018-02-18T10:02:39Z</time>
      </trkpt>
      <trkpt lat="50.65994" lon="3.77738">
        <ele>42.92</ele>
        <time>2018-02-18T10:02:40Z</time>
      </trkpt>
      <trkpt lat="50.65994" lon="3.7774">
        <ele>42.92</ele>
        <time>2018-02-18T10:02:41Z</time>
      </trkpt>
      <trkpt lat="50.65994" lon="3.77742">
        <ele>42.92</ele>
        <time>2018-02-18T10:02:42Z</time>
      </trkpt>
      <trkpt lat="50.65993" lon="3.77745">
        <ele>42.44</ele>
        <time>2018-02-18T10:02:43Z</time>
      </trkpt>
      <trkpt lat="50.65993" lon="3.77747">
        <ele>42.44</ele>
        <time>2018-02-18T10:02:44Z</time>
      </trkpt>
      <trkpt lat="50.65993" lon="3.7775">
        <ele>42.44</ele>
        <time>2018-02-18T10:02:45Z</time>
      </trkpt>
      <trkpt lat="50.65994" lon="3.77752">
        <ele>42.44</ele>
        <time>2018-02-18T10:02:46Z</time>
      </trkpt>
      <trkpt lat="50.65995" lon="3.77769">
        <ele>41.95</ele>
        <time>2018-02-18T10:02:53Z</time>
      </trkpt>
      <trkpt lat="50.65993" lon="3.77781">
        <ele>41.95</ele>
        <time>2018-02-18T10:02:59Z</time>
      </trkpt>
      <trkpt lat="50.65993" lon="3.77783">
        <ele>41.95</ele>
        <time>2018-02-18T10:03:00Z</time>
      </trkpt>
      <trkpt lat="50.65993" lon="3.77785">
        <ele>41.95</ele>
        <time>2018-02-18T10:03:01Z</time>
      </trkpt>
      <trkpt lat="50.65993" lon="3.77788">
        <ele>41.95</ele>
        <time>2018-02-18T10:03:02Z</time>
      </trkpt>
      <trkpt lat="50.65992" lon="3.77791">
        <ele>41.95</ele>
        <time>2018-02-18T10:03:03Z</time>
      </trkpt>
      <trkpt lat="50.65992" lon="3.77793">
        <ele>41.95</ele>
        <time>2018-02-18T10:03:04Z</time>
      </trkpt>
      <trkpt lat="50.65991" lon="3.77796">
        <ele>41.95</ele>
        <time>2018-02-18T10:03:05Z</time>
      </trkpt>
      <trkpt lat="50.65991" lon="3.77798">
        <ele>41.95</ele>
        <time>2018-02-18T10:03:06Z</time>
      </trkpt>
      <trkpt lat="50.6599" lon="3.77801">
        <ele>41.95</ele>
        <time>2018-02-18T10:03:07Z</time>
      </trkpt>
      <trkpt lat="50.6599" lon="3.77803">
        <ele>41.95</ele>
        <time>2018-02-18T10:03:08Z</time>
      </trkpt>
      <trkpt lat="50.65987" lon="3.7783">
        <ele>41.47</ele>
        <time>2018-02-18T10:03:22Z</time>
      </trkpt>
      <trkpt lat="50.65984" lon="3.77862">
        <ele>41.47</ele>
        <time>2018-02-18T10:03:38Z</time>
      </trkpt>
      <trkpt lat="50.65981" lon="3.77888">
        <ele>41.47</ele>
        <time>2018-02-18T10:03:51Z</time>
      </trkpt>
      <trkpt lat="50.65981" lon="3.7789">
        <ele>41.47</ele>
        <time>2018-02-18T10:03:52Z</time>
      </trkpt>
      <trkpt lat="50.65981" lon="3.77892">
        <ele>41.47</ele>
        <time>2018-02-18T10:03:53Z</time>
      </trkpt>
      <trkpt lat="50.6598" lon="3.77894">
        <ele>40.51</ele>
        <time>2018-02-18T10:03:54Z</time>
      </trkpt>
      <trkpt lat="50.6598" lon="3.77896">
        <ele>40.51</ele>
        <time>2018-02-18T10:03:55Z</time>
      </trkpt>
      <trkpt lat="50.6598" lon="3.77898">
        <ele>40.51</ele>
        <time>2018-02-18T10:03:56Z</time>
      </trkpt>
      <trkpt lat="50.65979" lon="3.779">
        <ele>40.51</ele>
        <time>2018-02-18T10:03:57Z</time>
      </trkpt>
      <trkpt lat="50.65978" lon="3.77903">
        <ele>40.51</ele>
        <time>2018-02-18T10:03:58Z</time>
      </trkpt>
      <trkpt lat="50.65978" lon="3.77921">
        <ele>40.51</ele>
        <time>2018-02-18T10:04:06Z</time>
      </trkpt>
      <trkpt lat="50.65978" lon="3.77951">
        <ele>40.03</ele>
        <time>2018-02-18T10:04:20Z</time>
      </trkpt>
      <trkpt lat="50.65978" lon="3.77953">
        <ele>40.03</ele>
        <time>2018-02-18T10:04:21Z</time>
      </trkpt>
      <trkpt lat="50.65978" lon="3.77955">
        <ele>40.03</ele>
        <time>2018-02-18T10:04:22Z</time>
      </trkpt>
      <trkpt lat="50.65978" lon="3.77957">
        <ele>40.03</ele>
        <time>2018-02-18T10:04:23Z</time>
      </trkpt>
      <trkpt lat="50.65978" lon="3.77959">
        <ele>40.03</ele>
        <time>2018-02-18T10:04:24Z</time>
      </trkpt>
      <trkpt lat="50.65978" lon="3.77961">
        <ele>40.03</ele>
        <time>2018-02-18T10:04:25Z</time>
      </trkpt>
      <trkpt lat="50.65978" lon="3.77963">
        <ele>40.03</ele>
        <time>2018-02-18T10:04:26Z</time>
      </trkpt>
      <trkpt lat="50.65978" lon="3.77965">
        <ele>40.03</ele>
        <time>2018-02-18T10:04:27Z</time>
      </trkpt>
      <trkpt lat="50.65985" lon="3.77994">
        <ele>40.03</ele>
        <time>2018-02-18T10:04:40Z</time>
      </trkpt>
      <trkpt lat="50.65986" lon="3.77996">
        <ele>40.03</ele>
        <time>2018-02-18T10:04:41Z</time>
      </trkpt>
      <trkpt lat="50.65986" lon="3.77998">
        <ele>40.03</ele>
        <time>2018-02-18T10:04:42Z</time>
      </trkpt>
      <trkpt lat="50.65987" lon="3.78">
        <ele>40.03</ele>
        <time>2018-02-18T10:04:43Z</time>
      </trkpt>
      <trkpt lat="50.65987" lon="3.78002">
        <ele>40.03</ele>
        <time>2018-02-18T10:04:44Z</time>
      </trkpt>
      <trkpt lat="50.65987" lon="3.78004">
        <ele>39.55</ele>
        <time>2018-02-18T10:04:45Z</time>
      </trkpt>
      <trkpt lat="50.65988" lon="3.78006">
        <ele>39.55</ele>
        <time>2018-02-18T10:04:46Z</time>
      </trkpt>
      <trkpt lat="50.65992" lon="3.78033">
        <ele>39.55</ele>
        <time>2018-02-18T10:04:59Z</time>
      </trkpt>
      <trkpt lat="50.65992" lon="3.78035">
        <ele>39.55</ele>
        <time>2018-02-18T10:05:00Z</time>
      </trkpt>
      <trkpt lat="50.65993" lon="3.78036">
        <ele>39.55</ele>
        <time>2018-02-18T10:05:01Z</time>
      </trkpt>
      <trkpt lat="50.65997" lon="3.7805">
        <ele>39.07</ele>
        <time>2018-02-18T10:05:09Z</time>
      </trkpt>
      <trkpt lat="50.65997" lon="3.78051">
        <ele>39.07</ele>
        <time>2018-02-18T10:05:10Z</time>
      </trkpt>
      <trkpt lat="50.65997" lon="3.78053">
        <ele>39.07</ele>
        <time>2018-02-18T10:05:11Z</time>
      </trkpt>
      <trkpt lat="50.65997" lon="3.78055">
        <ele>39.07</ele>
        <time>2018-02-18T10:05:12Z</time>
      </trkpt>
      <trkpt lat="50.65997" lon="3.78057">
        <ele>39.07</ele>
        <time>2018-02-18T10:05:13Z</time>
      </trkpt>
      <trkpt lat="50.65998" lon="3.7806">
        <ele>39.07</ele>
        <time>2018-02-18T10:05:14Z</time>
      </trkpt>
      <trkpt lat="50.66" lon="3.78089">
        <ele>39.07</ele>
        <time>2018-02-18T10:05:25Z</time>
      </trkpt>
      <trkpt lat="50.65999" lon="3.78092">
        <ele>39.07</ele>
        <time>2018-02-18T10:05:26Z</time>
      </trkpt>
      <trkpt lat="50.65999" lon="3.78094">
        <ele>38.59</ele>
        <time>2018-02-18T10:05:27Z</time>
      </trkpt>
      <trkpt lat="50.65999" lon="3.78096">
        <ele>38.59</ele>
        <time>2018-02-18T10:05:28Z</time>
      </trkpt>
      <trkpt lat="50.65999" lon="3.78098">
        <ele>38.59</ele>
        <time>2018-02-18T10:05:29Z</time>
      </trkpt>
      <trkpt lat="50.65999" lon="3.781">
        <ele>38.59</ele>
        <time>2018-02-18T10:05:30Z</time>
      </trkpt>
      <trkpt lat="50.65999" lon="3.78102">
        <ele>38.59</ele>
        <time>2018-02-18T10:05:31Z</time>
      </trkpt>
      <trkpt lat="50.65999" lon="3.78104">
        <ele>38.59</ele>
        <time>2018-02-18T10:05:32Z</time>
      </trkpt>
      <trkpt lat="50.66001" lon="3.78135">
        <ele>38.59</ele>
        <time>2018-02-18T10:05:47Z</time>
      </trkpt>
      <trkpt lat="50.65999" lon="3.78151">
        <ele>38.59</ele>
        <time>2018-02-18T10:05:59Z</time>
      </trkpt>
      <trkpt lat="50.65994" lon="3.78159">
        <ele>38.11</ele>
        <time>2018-02-18T10:06:04Z</time>
      </trkpt>
      <trkpt lat="50.65993" lon="3.78161">
        <ele>38.11</ele>
        <time>2018-02-18T10:06:05Z</time>
      </trkpt>
      <trkpt lat="50.65989" lon="3.78168">
        <ele>38.11</ele>
        <time>2018-02-18T10:06:08Z</time>
      </trkpt>
      <trkpt lat="50.65985" lon="3.78173">
        <ele>37.63</ele>
        <time>2018-02-18T10:06:11Z</time>
      </trkpt>
      <trkpt lat="50.65984" lon="3.78174">
        <ele>37.63</ele>
        <time>2018-02-18T10:06:12Z</time>
      </trkpt>
      <trkpt lat="50.65982" lon="3.78175">
        <ele>37.63</ele>
        <time>2018-02-18T10:06:13Z</time>
      </trkpt>
      <trkpt lat="50.65965" lon="3.7819">
        <ele>36.67</ele>
        <time>2018-02-18T10:06:30Z</time>
      </trkpt>
      <trkpt lat="50.65962" lon="3.78189">
        <ele>36.67</ele>
        <time>2018-02-18T10:06:47Z</time>
      </trkpt>
      <trkpt lat="50.65962" lon="3.78185">
        <ele>36.67</ele>
        <time>2018-02-18T10:07:05Z</time>
      </trkpt>
      <trkpt lat="50.6596" lon="3.78188">
        <ele>36.67</ele>
        <time>2018-02-18T10:07:08Z</time>
      </trkpt>
      <trkpt lat="50.65959" lon="3.78189">
        <ele>36.67</ele>
        <time>2018-02-18T10:07:09Z</time>
      </trkpt>
      <trkpt lat="50.65958" lon="3.78189">
        <ele>36.67</ele>
        <time>2018-02-18T10:07:10Z</time>
      </trkpt>
      <trkpt lat="50.65957" lon="3.7819">
        <ele>36.67</ele>
        <time>2018-02-18T10:07:11Z</time>
      </trkpt>
      <trkpt lat="50.65955" lon="3.7819">
        <ele>36.67</ele>
        <time>2018-02-18T10:07:12Z</time>
      </trkpt>
      <trkpt lat="50.65934" lon="3.78206">
        <ele>37.15</ele>
        <time>2018-02-18T10:07:29Z</time>
      </trkpt>
      <trkpt lat="50.65928" lon="3.78218">
        <ele>36.67</ele>
        <time>2018-02-18T10:07:38Z</time>
      </trkpt>
      <trkpt lat="50.65928" lon="3.78221">
        <ele>36.19</ele>
        <time>2018-02-18T10:07:39Z</time>
      </trkpt>
      <trkpt lat="50.65928" lon="3.78224">
        <ele>36.19</ele>
        <time>2018-02-18T10:07:40Z</time>
      </trkpt>
      <trkpt lat="50.65927" lon="3.78227">
        <ele>36.19</ele>
        <time>2018-02-18T10:07:41Z</time>
      </trkpt>
      <trkpt lat="50.65927" lon="3.78229">
        <ele>36.19</ele>
        <time>2018-02-18T10:07:42Z</time>
      </trkpt>
      <trkpt lat="50.65927" lon="3.78232">
        <ele>36.19</ele>
        <time>2018-02-18T10:07:43Z</time>
      </trkpt>
      <trkpt lat="50.65927" lon="3.78234">
        <ele>36.19</ele>
        <time>2018-02-18T10:07:44Z</time>
      </trkpt>
      <trkpt lat="50.65927" lon="3.78236">
        <ele>36.19</ele>
        <time>2018-02-18T10:07:45Z</time>
      </trkpt>
      <trkpt lat="50.65927" lon="3.78238">
        <ele>36.19</ele>
        <time>2018-02-18T10:07:46Z</time>
      </trkpt>
      <trkpt lat="50.65927" lon="3.7824">
        <ele>36.19</ele>
        <time>2018-02-18T10:07:47Z</time>
      </trkpt>
      <trkpt lat="50.65927" lon="3.78242">
        <ele>36.19</ele>
        <time>2018-02-18T10:07:48Z</time>
      </trkpt>
      <trkpt lat="50.65928" lon="3.78244">
        <ele>36.19</ele>
        <time>2018-02-18T10:07:49Z</time>
      </trkpt>
      <trkpt lat="50.65928" lon="3.78246">
        <ele>36.19</ele>
        <time>2018-02-18T10:07:50Z</time>
      </trkpt>
      <trkpt lat="50.65929" lon="3.78248">
        <ele>36.19</ele>
        <time>2018-02-18T10:07:51Z</time>
      </trkpt>
      <trkpt lat="50.65929" lon="3.7825">
        <ele>36.19</ele>
        <time>2018-02-18T10:07:52Z</time>
      </trkpt>
      <trkpt lat="50.65929" lon="3.78252">
        <ele>36.19</ele>
        <time>2018-02-18T10:07:53Z</time>
      </trkpt>
      <trkpt lat="50.65931" lon="3.78256">
        <ele>36.19</ele>
        <time>2018-02-18T10:07:56Z</time>
      </trkpt>
      <trkpt lat="50.65931" lon="3.78258">
        <ele>35.71</ele>
        <time>2018-02-18T10:07:57Z</time>
      </trkpt>
      <trkpt lat="50.65935" lon="3.78283">
        <ele>35.23</ele>
        <time>2018-02-18T10:08:10Z</time>
      </trkpt>
      <trkpt lat="50.65935" lon="3.78297">
        <ele>34.74</ele>
        <time>2018-02-18T10:08:15Z</time>
      </trkpt>
      <trkpt lat="50.65935" lon="3.78302">
        <ele>34.74</ele>
        <time>2018-02-18T10:08:17Z</time>
      </trkpt>
      <trkpt lat="50.65935" lon="3.78304">
        <ele>34.74</ele>
        <time>2018-02-18T10:08:18Z</time>
      </trkpt>
      <trkpt lat="50.65935" lon="3.78306">
        <ele>34.74</ele>
        <time>2018-02-18T10:08:19Z</time>
      </trkpt>
      <trkpt lat="50.65937" lon="3.78316">
        <ele>34.74</ele>
        <time>2018-02-18T10:08:24Z</time>
      </trkpt>
      <trkpt lat="50.6595" lon="3.78335">
        <ele>33.78</ele>
        <time>2018-02-18T10:08:36Z</time>
      </trkpt>
      <trkpt lat="50.65958" lon="3.78345">
        <ele>33.78</ele>
        <time>2018-02-18T10:08:44Z</time>
      </trkpt>
      <trkpt lat="50.6596" lon="3.78358">
        <ele>33.78</ele>
        <time>2018-02-18T10:08:50Z</time>
      </trkpt>
      <trkpt lat="50.6596" lon="3.78361">
        <ele>33.78</ele>
        <time>2018-02-18T10:08:51Z</time>
      </trkpt>
      <trkpt lat="50.6596" lon="3.78363">
        <ele>33.3</ele>
        <time>2018-02-18T10:08:52Z</time>
      </trkpt>
      <trkpt lat="50.65959" lon="3.78365">
        <ele>32.82</ele>
        <time>2018-02-18T10:08:53Z</time>
      </trkpt>
      <trkpt lat="50.65958" lon="3.78366">
        <ele>33.3</ele>
        <time>2018-02-18T10:08:54Z</time>
      </trkpt>
      <trkpt lat="50.65956" lon="3.78368">
        <ele>33.3</ele>
        <time>2018-02-18T10:08:55Z</time>
      </trkpt>
      <trkpt lat="50.65955" lon="3.78369">
        <ele>32.82</ele>
        <time>2018-02-18T10:08:56Z</time>
      </trkpt>
      <trkpt lat="50.65954" lon="3.7837">
        <ele>32.82</ele>
        <time>2018-02-18T10:08:57Z</time>
      </trkpt>
      <trkpt lat="50.65952" lon="3.78372">
        <ele>32.82</ele>
        <time>2018-02-18T10:08:58Z</time>
      </trkpt>
      <trkpt lat="50.65935" lon="3.78391">
        <ele>31.86</ele>
        <time>2018-02-18T10:09:13Z</time>
      </trkpt>
      <trkpt lat="50.65932" lon="3.78393">
        <ele>31.86</ele>
        <time>2018-02-18T10:09:15Z</time>
      </trkpt>
      <trkpt lat="50.65916" lon="3.78408">
        <ele>29.94</ele>
        <time>2018-02-18T10:09:29Z</time>
      </trkpt>
      <trkpt lat="50.65915" lon="3.78409">
        <ele>29.94</ele>
        <time>2018-02-18T10:09:30Z</time>
      </trkpt>
      <trkpt lat="50.6591" lon="3.78418">
        <ele>29.46</ele>
        <time>2018-02-18T10:09:34Z</time>
      </trkpt>
      <trkpt lat="50.65909" lon="3.7842">
        <ele>29.46</ele>
        <time>2018-02-18T10:09:35Z</time>
      </trkpt>
      <trkpt lat="50.65898" lon="3.78433">
        <ele>28.02</ele>
        <time>2018-02-18T10:09:47Z</time>
      </trkpt>
      <trkpt lat="50.65886" lon="3.78444">
        <ele>27.53</ele>
        <time>2018-02-18T10:09:55Z</time>
      </trkpt>
      <trkpt lat="50.65885" lon="3.78445">
        <ele>27.53</ele>
        <time>2018-02-18T10:09:56Z</time>
      </trkpt>
      <trkpt lat="50.65871" lon="3.78458">
        <ele>26.57</ele>
        <time>2018-02-18T10:10:10Z</time>
      </trkpt>
      <trkpt lat="50.65862" lon="3.78466">
        <ele>26.09</ele>
        <time>2018-02-18T10:10:20Z</time>
      </trkpt>
      <trkpt lat="50.65861" lon="3.78467">
        <ele>26.09</ele>
        <time>2018-02-18T10:10:21Z</time>
      </trkpt>
      <trkpt lat="50.6586" lon="3.78468">
        <ele>26.09</ele>
        <time>2018-02-18T10:10:22Z</time>
      </trkpt>
      <trkpt lat="50.65843" lon="3.78478">
        <ele>27.53</ele>
        <time>2018-02-18T10:10:35Z</time>
      </trkpt>
      <trkpt lat="50.65836" lon="3.78488">
        <ele>28.5</ele>
        <time>2018-02-18T10:10:42Z</time>
      </trkpt>
      <trkpt lat="50.65834" lon="3.78489">
        <ele>28.5</ele>
        <time>2018-02-18T10:10:43Z</time>
      </trkpt>
      <trkpt lat="50.65833" lon="3.7849">
        <ele>28.5</ele>
        <time>2018-02-18T10:10:44Z</time>
      </trkpt>
      <trkpt lat="50.65832" lon="3.78492">
        <ele>28.5</ele>
        <time>2018-02-18T10:10:45Z</time>
      </trkpt>
      <trkpt lat="50.65831" lon="3.78493">
        <ele>28.98</ele>
        <time>2018-02-18T10:10:46Z</time>
      </trkpt>
      <trkpt lat="50.65817" lon="3.7851">
        <ele>30.42</ele>
        <time>2018-02-18T10:11:00Z</time>
      </trkpt>
      <trkpt lat="50.658" lon="3.78527">
        <ele>31.38</ele>
        <time>2018-02-18T10:11:14Z</time>
      </trkpt>
      <trkpt lat="50.6578" lon="3.78545">
        <ele>31.86</ele>
        <time>2018-02-18T10:11:30Z</time>
      </trkpt>
      <trkpt lat="50.6576" lon="3.78563">
        <ele>31.86</ele>
        <time>2018-02-18T10:11:47Z</time>
      </trkpt>
      <trkpt lat="50.65734" lon="3.78583">
        <ele>31.86</ele>
        <time>2018-02-18T10:12:08Z</time>
      </trkpt>
      <trkpt lat="50.6571" lon="3.78603">
        <ele>31.86</ele>
        <time>2018-02-18T10:12:27Z</time>
      </trkpt>
      <trkpt lat="50.65682" lon="3.78609">
        <ele>30.42</ele>
        <time>2018-02-18T10:12:48Z</time>
      </trkpt>
      <trkpt lat="50.65654" lon="3.78615">
        <ele>29.46</ele>
        <time>2018-02-18T10:13:09Z</time>
      </trkpt>
      <trkpt lat="50.6563" lon="3.78619">
        <ele>28.02</ele>
        <time>2018-02-18T10:13:27Z</time>
      </trkpt>
      <trkpt lat="50.65606" lon="3.78627">
        <ele>26.09</ele>
        <time>2018-02-18T10:13:45Z</time>
      </trkpt>
      <trkpt lat="50.65586" lon="3.78631">
        <ele>25.61</ele>
        <time>2018-02-18T10:14:00Z</time>
      </trkpt>
      <trkpt lat="50.65573" lon="3.78635">
        <ele>25.13</ele>
        <time>2018-02-18T10:14:09Z</time>
      </trkpt>
      <trkpt lat="50.65572" lon="3.78635">
        <ele>25.13</ele>
        <time>2018-02-18T10:14:10Z</time>
      </trkpt>
      <trkpt lat="50.6557" lon="3.78635">
        <ele>25.13</ele>
        <time>2018-02-18T10:14:11Z</time>
      </trkpt>
      <trkpt lat="50.65542" lon="3.78643">
        <ele>24.65</ele>
        <time>2018-02-18T10:14:32Z</time>
      </trkpt>
      <trkpt lat="50.65519" lon="3.78651">
        <ele>24.17</ele>
        <time>2018-02-18T10:14:49Z</time>
      </trkpt>
      <trkpt lat="50.655" lon="3.78667">
        <ele>24.17</ele>
        <time>2018-02-18T10:15:06Z</time>
      </trkpt>
      <trkpt lat="50.65485" lon="3.7868">
        <ele>24.17</ele>
        <time>2018-02-18T10:15:19Z</time>
      </trkpt>
      <trkpt lat="50.65465" lon="3.78679">
        <ele>24.17</ele>
        <time>2018-02-18T10:15:33Z</time>
      </trkpt>
      <trkpt lat="50.65462" lon="3.78679">
        <ele>25.61</ele>
        <time>2018-02-18T10:15:36Z</time>
      </trkpt>
      <trkpt lat="50.65458" lon="3.78678">
        <ele>25.61</ele>
        <time>2018-02-18T10:15:39Z</time>
      </trkpt>
      <trkpt lat="50.65457" lon="3.78678">
        <ele>25.61</ele>
        <time>2018-02-18T10:15:40Z</time>
      </trkpt>
      <trkpt lat="50.65452" lon="3.78677">
        <ele>26.09</ele>
        <time>2018-02-18T10:15:44Z</time>
      </trkpt>
      <trkpt lat="50.65434" lon="3.78684">
        <ele>27.53</ele>
        <time>2018-02-18T10:15:59Z</time>
      </trkpt>
      <trkpt lat="50.65417" lon="3.78697">
        <ele>29.46</ele>
        <time>2018-02-18T10:16:14Z</time>
      </trkpt>
      <trkpt lat="50.654" lon="3.78718">
        <ele>30.9</ele>
        <time>2018-02-18T10:16:30Z</time>
      </trkpt>
      <trkpt lat="50.65396" lon="3.78722">
        <ele>30.9</ele>
        <time>2018-02-18T10:16:33Z</time>
      </trkpt>
      <trkpt lat="50.65395" lon="3.78724">
        <ele>31.38</ele>
        <time>2018-02-18T10:16:34Z</time>
      </trkpt>
      <trkpt lat="50.65394" lon="3.78726">
        <ele>31.38</ele>
        <time>2018-02-18T10:16:35Z</time>
      </trkpt>
      <trkpt lat="50.65387" lon="3.78732">
        <ele>31.86</ele>
        <time>2018-02-18T10:16:41Z</time>
      </trkpt>
      <trkpt lat="50.65371" lon="3.78753">
        <ele>33.78</ele>
        <time>2018-02-18T10:16:56Z</time>
      </trkpt>
      <trkpt lat="50.65359" lon="3.78763">
        <ele>34.26</ele>
        <time>2018-02-18T10:17:06Z</time>
      </trkpt>
      <trkpt lat="50.65358" lon="3.78764">
        <ele>34.26</ele>
        <time>2018-02-18T10:17:07Z</time>
      </trkpt>
      <trkpt lat="50.65357" lon="3.78765">
        <ele>34.26</ele>
        <time>2018-02-18T10:17:08Z</time>
      </trkpt>
      <trkpt lat="50.65337" lon="3.78784">
        <ele>35.23</ele>
        <time>2018-02-18T10:17:25Z</time>
      </trkpt>
      <trkpt lat="50.65312" lon="3.78808">
        <ele>35.23</ele>
        <time>2018-02-18T10:17:46Z</time>
      </trkpt>
      <trkpt lat="50.65311" lon="3.78811">
        <ele>35.23</ele>
        <time>2018-02-18T10:17:54Z</time>
      </trkpt>
      <trkpt lat="50.6531" lon="3.78812">
        <ele>35.23</ele>
        <time>2018-02-18T10:17:55Z</time>
      </trkpt>
      <trkpt lat="50.65309" lon="3.78813">
        <ele>35.23</ele>
        <time>2018-02-18T10:17:56Z</time>
      </trkpt>
      <trkpt lat="50.65308" lon="3.78814">
        <ele>35.23</ele>
        <time>2018-02-18T10:17:57Z</time>
      </trkpt>
      <trkpt lat="50.65307" lon="3.78815">
        <ele>35.23</ele>
        <time>2018-02-18T10:17:58Z</time>
      </trkpt>
      <trkpt lat="50.65305" lon="3.78816">
        <ele>35.23</ele>
        <time>2018-02-18T10:17:59Z</time>
      </trkpt>
      <trkpt lat="50.65304" lon="3.78817">
        <ele>35.23</ele>
        <time>2018-02-18T10:18:00Z</time>
      </trkpt>
      <trkpt lat="50.65303" lon="3.78818">
        <ele>35.23</ele>
        <time>2018-02-18T10:18:01Z</time>
      </trkpt>
      <trkpt lat="50.65291" lon="3.78829">
        <ele>35.23</ele>
        <time>2018-02-18T10:18:15Z</time>
      </trkpt>
      <trkpt lat="50.65286" lon="3.78834">
        <ele>34.26</ele>
        <time>2018-02-18T10:18:20Z</time>
      </trkpt>
      <trkpt lat="50.65274" lon="3.78844">
        <ele>33.3</ele>
        <time>2018-02-18T10:18:31Z</time>
      </trkpt>
      <trkpt lat="50.65256" lon="3.78867">
        <ele>31.38</ele>
        <time>2018-02-18T10:18:49Z</time>
      </trkpt>
      <trkpt lat="50.65244" lon="3.78879">
        <ele>30.42</ele>
        <time>2018-02-18T10:19:00Z</time>
      </trkpt>
      <trkpt lat="50.65244" lon="3.78879">
        <ele>30.42</ele>
        <time>2018-02-18T10:19:01Z</time>
      </trkpt>
      <trkpt lat="50.65242" lon="3.78881">
        <ele>29.94</ele>
        <time>2018-02-18T10:19:02Z</time>
      </trkpt>
      <trkpt lat="50.6524" lon="3.78882">
        <ele>29.94</ele>
        <time>2018-02-18T10:19:03Z</time>
      </trkpt>
      <trkpt lat="50.65222" lon="3.789">
        <ele>27.53</ele>
        <time>2018-02-18T10:19:19Z</time>
      </trkpt>
      <trkpt lat="50.65206" lon="3.78914">
        <ele>26.09</ele>
        <time>2018-02-18T10:19:34Z</time>
      </trkpt>
      <trkpt lat="50.65189" lon="3.78932">
        <ele>24.17</ele>
        <time>2018-02-18T10:19:48Z</time>
      </trkpt>
      <trkpt lat="50.65181" lon="3.78964">
        <ele>22.25</ele>
        <time>2018-02-18T10:20:04Z</time>
      </trkpt>
      <trkpt lat="50.65169" lon="3.78977">
        <ele>21.77</ele>
        <time>2018-02-18T10:20:17Z</time>
      </trkpt>
      <trkpt lat="50.65152" lon="3.78978">
        <ele>21.29</ele>
        <time>2018-02-18T10:20:31Z</time>
      </trkpt>
      <trkpt lat="50.65131" lon="3.78981">
        <ele>20.81</ele>
        <time>2018-02-18T10:20:44Z</time>
      </trkpt>
      <trkpt lat="50.65123" lon="3.78993">
        <ele>20.81</ele>
        <time>2018-02-18T10:20:53Z</time>
      </trkpt>
      <trkpt lat="50.65122" lon="3.78994">
        <ele>21.29</ele>
        <time>2018-02-18T10:20:54Z</time>
      </trkpt>
      <trkpt lat="50.65121" lon="3.78997">
        <ele>20.81</ele>
        <time>2018-02-18T10:20:55Z</time>
      </trkpt>
      <trkpt lat="50.65121" lon="3.78999">
        <ele>20.81</ele>
        <time>2018-02-18T10:20:56Z</time>
      </trkpt>
      <trkpt lat="50.65121" lon="3.79001">
        <ele>20.81</ele>
        <time>2018-02-18T10:20:57Z</time>
      </trkpt>
      <trkpt lat="50.6512" lon="3.79003">
        <ele>21.29</ele>
        <time>2018-02-18T10:20:58Z</time>
      </trkpt>
      <trkpt lat="50.65114" lon="3.79031">
        <ele>22.25</ele>
        <time>2018-02-18T10:21:13Z</time>
      </trkpt>
      <trkpt lat="50.65111" lon="3.79038">
        <ele>22.25</ele>
        <time>2018-02-18T10:21:17Z</time>
      </trkpt>
      <trkpt lat="50.65093" lon="3.79057">
        <ele>22.25</ele>
        <time>2018-02-18T10:21:31Z</time>
      </trkpt>
      <trkpt lat="50.65075" lon="3.79071">
        <ele>22.25</ele>
        <time>2018-02-18T10:21:46Z</time>
      </trkpt>
      <trkpt lat="50.65056" lon="3.79084">
        <ele>22.25</ele>
        <time>2018-02-18T10:22:00Z</time>
      </trkpt>
      <trkpt lat="50.65055" lon="3.7909">
        <ele>22.25</ele>
        <time>2018-02-18T10:22:03Z</time>
      </trkpt>
      <trkpt lat="50.65055" lon="3.79093">
        <ele>22.25</ele>
        <time>2018-02-18T10:22:04Z</time>
      </trkpt>
      <trkpt lat="50.65054" lon="3.79094">
        <ele>22.25</ele>
        <time>2018-02-18T10:22:05Z</time>
      </trkpt>
      <trkpt lat="50.65053" lon="3.79096">
        <ele>22.25</ele>
        <time>2018-02-18T10:22:06Z</time>
      </trkpt>
      <trkpt lat="50.65052" lon="3.79098">
        <ele>22.25</ele>
        <time>2018-02-18T10:22:07Z</time>
      </trkpt>
      <trkpt lat="50.65051" lon="3.791">
        <ele>22.25</ele>
        <time>2018-02-18T10:22:08Z</time>
      </trkpt>
      <trkpt lat="50.65046" lon="3.79106">
        <ele>22.25</ele>
        <time>2018-02-18T10:22:13Z</time>
      </trkpt>
      <trkpt lat="50.65045" lon="3.79108">
        <ele>22.25</ele>
        <time>2018-02-18T10:22:14Z</time>
      </trkpt>
      <trkpt lat="50.65045" lon="3.7911">
        <ele>22.25</ele>
        <time>2018-02-18T10:22:15Z</time>
      </trkpt>
      <trkpt lat="50.65033" lon="3.79118">
        <ele>22.25</ele>
        <time>2018-02-18T10:22:28Z</time>
      </trkpt>
      <trkpt lat="50.65032" lon="3.79116">
        <ele>22.25</ele>
        <time>2018-02-18T10:22:29Z</time>
      </trkpt>
      <trkpt lat="50.65031" lon="3.79115">
        <ele>22.25</ele>
        <time>2018-02-18T10:22:30Z</time>
      </trkpt>
      <trkpt lat="50.6503" lon="3.79114">
        <ele>22.25</ele>
        <time>2018-02-18T10:22:31Z</time>
      </trkpt>
      <trkpt lat="50.65029" lon="3.79113">
        <ele>22.25</ele>
        <time>2018-02-18T10:22:32Z</time>
      </trkpt>
      <trkpt lat="50.65028" lon="3.79112">
        <ele>22.25</ele>
        <time>2018-02-18T10:22:33Z</time>
      </trkpt>
      <trkpt lat="50.65012" lon="3.79095">
        <ele>22.25</ele>
        <time>2018-02-18T10:22:47Z</time>
      </trkpt>
      <trkpt lat="50.65007" lon="3.79092">
        <ele>22.25</ele>
        <time>2018-02-18T10:22:51Z</time>
      </trkpt>
      <trkpt lat="50.65006" lon="3.7909">
        <ele>22.25</ele>
        <time>2018-02-18T10:22:52Z</time>
      </trkpt>
      <trkpt lat="50.65005" lon="3.79089">
        <ele>22.25</ele>
        <time>2018-02-18T10:22:53Z</time>
      </trkpt>
      <trkpt lat="50.64987" lon="3.79069">
        <ele>22.25</ele>
        <time>2018-02-18T10:23:12Z</time>
      </trkpt>
      <trkpt lat="50.64981" lon="3.79065">
        <ele>22.25</ele>
        <time>2018-02-18T10:23:17Z</time>
      </trkpt>
      <trkpt lat="50.64969" lon="3.79059">
        <ele>22.25</ele>
        <time>2018-02-18T10:23:28Z</time>
      </trkpt>
      <trkpt lat="50.64959" lon="3.79059">
        <ele>22.25</ele>
        <time>2018-02-18T10:23:37Z</time>
      </trkpt>
      <trkpt lat="50.64947" lon="3.7906">
        <ele>22.25</ele>
        <time>2018-02-18T10:23:47Z</time>
      </trkpt>
      <trkpt lat="50.64945" lon="3.7906">
        <ele>22.25</ele>
        <time>2018-02-18T10:23:48Z</time>
      </trkpt>
      <trkpt lat="50.64943" lon="3.79061">
        <ele>22.25</ele>
        <time>2018-02-18T10:23:49Z</time>
      </trkpt>
      <trkpt lat="50.64942" lon="3.79062">
        <ele>22.25</ele>
        <time>2018-02-18T10:23:50Z</time>
      </trkpt>
      <trkpt lat="50.6494" lon="3.79063">
        <ele>22.25</ele>
        <time>2018-02-18T10:23:51Z</time>
      </trkpt>
      <trkpt lat="50.64938" lon="3.79063">
        <ele>22.25</ele>
        <time>2018-02-18T10:23:52Z</time>
      </trkpt>
      <trkpt lat="50.64936" lon="3.79064">
        <ele>22.25</ele>
        <time>2018-02-18T10:23:53Z</time>
      </trkpt>
      <trkpt lat="50.64934" lon="3.79065">
        <ele>22.25</ele>
        <time>2018-02-18T10:23:54Z</time>
      </trkpt>
      <trkpt lat="50.64909" lon="3.79073">
        <ele>22.25</ele>
        <time>2018-02-18T10:24:10Z</time>
      </trkpt>
      <trkpt lat="50.64908" lon="3.79074">
        <ele>22.25</ele>
        <time>2018-02-18T10:24:11Z</time>
      </trkpt>
      <trkpt lat="50.64905" lon="3.79075">
        <ele>22.25</ele>
        <time>2018-02-18T10:24:13Z</time>
      </trkpt>
      <trkpt lat="50.64881" lon="3.79077">
        <ele>22.25</ele>
        <time>2018-02-18T10:24:30Z</time>
      </trkpt>
      <trkpt lat="50.64852" lon="3.79072">
        <ele>22.25</ele>
        <time>2018-02-18T10:24:47Z</time>
      </trkpt>
      <trkpt lat="50.64828" lon="3.79065">
        <ele>22.25</ele>
        <time>2018-02-18T10:25:01Z</time>
      </trkpt>
      <trkpt lat="50.64805" lon="3.79052">
        <ele>22.25</ele>
        <time>2018-02-18T10:25:20Z</time>
      </trkpt>
      <trkpt lat="50.64786" lon="3.79039">
        <ele>22.25</ele>
        <time>2018-02-18T10:25:36Z</time>
      </trkpt>
      <trkpt lat="50.64768" lon="3.79022">
        <ele>22.25</ele>
        <time>2018-02-18T10:25:51Z</time>
      </trkpt>
      <trkpt lat="50.64746" lon="3.79">
        <ele>22.73</ele>
        <time>2018-02-18T10:26:08Z</time>
      </trkpt>
      <trkpt lat="50.64729" lon="3.78986">
        <ele>22.73</ele>
        <time>2018-02-18T10:26:25Z</time>
      </trkpt>
      <trkpt lat="50.6472" lon="3.78977">
        <ele>22.73</ele>
        <time>2018-02-18T10:26:32Z</time>
      </trkpt>
      <trkpt lat="50.64719" lon="3.78977">
        <ele>22.73</ele>
        <time>2018-02-18T10:26:33Z</time>
      </trkpt>
      <trkpt lat="50.64718" lon="3.78975">
        <ele>22.73</ele>
        <time>2018-02-18T10:26:34Z</time>
      </trkpt>
      <trkpt lat="50.64717" lon="3.78974">
        <ele>22.73</ele>
        <time>2018-02-18T10:26:35Z</time>
      </trkpt>
      <trkpt lat="50.64715" lon="3.78972">
        <ele>22.73</ele>
        <time>2018-02-18T10:26:36Z</time>
      </trkpt>
      <trkpt lat="50.64714" lon="3.78971">
        <ele>22.73</ele>
        <time>2018-02-18T10:26:37Z</time>
      </trkpt>
      <trkpt lat="50.6471" lon="3.78965">
        <ele>22.73</ele>
        <time>2018-02-18T10:26:41Z</time>
      </trkpt>
      <trkpt lat="50.64695" lon="3.7895">
        <ele>22.73</ele>
        <time>2018-02-18T10:26:56Z</time>
      </trkpt>
      <trkpt lat="50.64683" lon="3.78937">
        <ele>22.73</ele>
        <time>2018-02-18T10:27:09Z</time>
      </trkpt>
      <trkpt lat="50.64675" lon="3.78927">
        <ele>22.73</ele>
        <time>2018-02-18T10:27:18Z</time>
      </trkpt>
      <trkpt lat="50.64663" lon="3.78904">
        <ele>22.73</ele>
        <time>2018-02-18T10:27:32Z</time>
      </trkpt>
      <trkpt lat="50.6466" lon="3.78898">
        <ele>22.73</ele>
        <time>2018-02-18T10:27:35Z</time>
      </trkpt>
      <trkpt lat="50.64643" lon="3.78874">
        <ele>22.73</ele>
        <time>2018-02-18T10:27:51Z</time>
      </trkpt>
      <trkpt lat="50.64629" lon="3.78849">
        <ele>22.73</ele>
        <time>2018-02-18T10:28:04Z</time>
      </trkpt>
      <trkpt lat="50.64618" lon="3.78821">
        <ele>22.73</ele>
        <time>2018-02-18T10:28:19Z</time>
      </trkpt>
      <trkpt lat="50.64609" lon="3.78803">
        <ele>22.73</ele>
        <time>2018-02-18T10:28:31Z</time>
      </trkpt>
      <trkpt lat="50.64601" lon="3.78779">
        <ele>22.73</ele>
        <time>2018-02-18T10:28:44Z</time>
      </trkpt>
      <trkpt lat="50.64584" lon="3.78741">
        <ele>22.73</ele>
        <time>2018-02-18T10:29:02Z</time>
      </trkpt>
      <trkpt lat="50.64578" lon="3.78712">
        <ele>22.73</ele>
        <time>2018-02-18T10:29:17Z</time>
      </trkpt>
      <trkpt lat="50.64577" lon="3.7871">
        <ele>22.73</ele>
        <time>2018-02-18T10:29:18Z</time>
      </trkpt>
      <trkpt lat="50.64577" lon="3.78707">
        <ele>22.73</ele>
        <time>2018-02-18T10:29:19Z</time>
      </trkpt>
      <trkpt lat="50.64577" lon="3.78701">
        <ele>22.73</ele>
        <time>2018-02-18T10:29:22Z</time>
      </trkpt>
      <trkpt lat="50.64581" lon="3.78679">
        <ele>22.73</ele>
        <time>2018-02-18T10:29:33Z</time>
      </trkpt>
      <trkpt lat="50.64581" lon="3.78677">
        <ele>22.73</ele>
        <time>2018-02-18T10:29:34Z</time>
      </trkpt>
      <trkpt lat="50.64581" lon="3.78675">
        <ele>22.73</ele>
        <time>2018-02-18T10:29:35Z</time>
      </trkpt>
      <trkpt lat="50.64581" lon="3.78654">
        <ele>23.21</ele>
        <time>2018-02-18T10:29:46Z</time>
      </trkpt>
      <trkpt lat="50.64581" lon="3.78651">
        <ele>23.21</ele>
        <time>2018-02-18T10:29:47Z</time>
      </trkpt>
      <trkpt lat="50.64582" lon="3.78649">
        <ele>23.21</ele>
        <time>2018-02-18T10:29:48Z</time>
      </trkpt>
      <trkpt lat="50.64582" lon="3.78647">
        <ele>23.21</ele>
        <time>2018-02-18T10:29:49Z</time>
      </trkpt>
      <trkpt lat="50.64582" lon="3.78644">
        <ele>23.21</ele>
        <time>2018-02-18T10:29:50Z</time>
      </trkpt>
      <trkpt lat="50.64582" lon="3.78641">
        <ele>23.21</ele>
        <time>2018-02-18T10:29:51Z</time>
      </trkpt>
      <trkpt lat="50.64583" lon="3.78639">
        <ele>23.21</ele>
        <time>2018-02-18T10:29:52Z</time>
      </trkpt>
      <trkpt lat="50.64583" lon="3.78637">
        <ele>23.21</ele>
        <time>2018-02-18T10:29:53Z</time>
      </trkpt>
      <trkpt lat="50.64583" lon="3.78634">
        <ele>23.21</ele>
        <time>2018-02-18T10:29:54Z</time>
      </trkpt>
      <trkpt lat="50.64582" lon="3.78632">
        <ele>23.21</ele>
        <time>2018-02-18T10:29:55Z</time>
      </trkpt>
      <trkpt lat="50.64582" lon="3.78627">
        <ele>23.21</ele>
        <time>2018-02-18T10:29:57Z</time>
      </trkpt>
      <trkpt lat="50.64582" lon="3.78625">
        <ele>23.21</ele>
        <time>2018-02-18T10:29:58Z</time>
      </trkpt>
      <trkpt lat="50.64581" lon="3.78613">
        <ele>23.21</ele>
        <time>2018-02-18T10:30:05Z</time>
      </trkpt>
      <trkpt lat="50.6458" lon="3.78589">
        <ele>23.21</ele>
        <time>2018-02-18T10:30:16Z</time>
      </trkpt>
      <trkpt lat="50.6458" lon="3.78587">
        <ele>23.21</ele>
        <time>2018-02-18T10:30:17Z</time>
      </trkpt>
      <trkpt lat="50.64582" lon="3.78577">
        <ele>23.21</ele>
        <time>2018-02-18T10:30:21Z</time>
      </trkpt>
      <trkpt lat="50.64575" lon="3.78553">
        <ele>23.21</ele>
        <time>2018-02-18T10:30:34Z</time>
      </trkpt>
      <trkpt lat="50.64571" lon="3.78546">
        <ele>23.21</ele>
        <time>2018-02-18T10:30:38Z</time>
      </trkpt>
      <trkpt lat="50.64562" lon="3.78524">
        <ele>23.21</ele>
        <time>2018-02-18T10:30:49Z</time>
      </trkpt>
      <trkpt lat="50.64561" lon="3.78523">
        <ele>23.21</ele>
        <time>2018-02-18T10:30:50Z</time>
      </trkpt>
      <trkpt lat="50.64557" lon="3.7852">
        <ele>23.21</ele>
        <time>2018-02-18T10:30:53Z</time>
      </trkpt>
      <trkpt lat="50.64557" lon="3.78519">
        <ele>23.21</ele>
        <time>2018-02-18T10:30:54Z</time>
      </trkpt>
      <trkpt lat="50.64556" lon="3.78517">
        <ele>23.21</ele>
        <time>2018-02-18T10:30:55Z</time>
      </trkpt>
      <trkpt lat="50.6454" lon="3.7849">
        <ele>23.21</ele>
        <time>2018-02-18T10:31:11Z</time>
      </trkpt>
      <trkpt lat="50.64526" lon="3.78463">
        <ele>23.21</ele>
        <time>2018-02-18T10:31:28Z</time>
      </trkpt>
      <trkpt lat="50.64509" lon="3.78434">
        <ele>23.21</ele>
        <time>2018-02-18T10:31:46Z</time>
      </trkpt>
      <trkpt lat="50.64485" lon="3.78409">
        <ele>23.21</ele>
        <time>2018-02-18T10:32:07Z</time>
      </trkpt>
      <trkpt lat="50.64465" lon="3.78386">
        <ele>23.21</ele>
        <time>2018-02-18T10:32:23Z</time>
      </trkpt>
      <trkpt lat="50.64452" lon="3.7837">
        <ele>23.21</ele>
        <time>2018-02-18T10:32:36Z</time>
      </trkpt>
      <trkpt lat="50.64451" lon="3.78368">
        <ele>23.21</ele>
        <time>2018-02-18T10:32:37Z</time>
      </trkpt>
      <trkpt lat="50.64441" lon="3.78346">
        <ele>23.21</ele>
        <time>2018-02-18T10:32:50Z</time>
      </trkpt>
      <trkpt lat="50.6443" lon="3.78311">
        <ele>23.21</ele>
        <time>2018-02-18T10:33:09Z</time>
      </trkpt>
      <trkpt lat="50.6443" lon="3.78308">
        <ele>23.21</ele>
        <time>2018-02-18T10:33:10Z</time>
      </trkpt>
      <trkpt lat="50.6443" lon="3.78306">
        <ele>23.21</ele>
        <time>2018-02-18T10:33:11Z</time>
      </trkpt>
      <trkpt lat="50.64429" lon="3.78304">
        <ele>23.21</ele>
        <time>2018-02-18T10:33:12Z</time>
      </trkpt>
      <trkpt lat="50.64429" lon="3.78302">
        <ele>23.21</ele>
        <time>2018-02-18T10:33:13Z</time>
      </trkpt>
      <trkpt lat="50.64429" lon="3.783">
        <ele>23.21</ele>
        <time>2018-02-18T10:33:14Z</time>
      </trkpt>
      <trkpt lat="50.64424" lon="3.78271">
        <ele>23.69</ele>
        <time>2018-02-18T10:33:28Z</time>
      </trkpt>
      <trkpt lat="50.64422" lon="3.7826">
        <ele>23.69</ele>
        <time>2018-02-18T10:33:34Z</time>
      </trkpt>
      <trkpt lat="50.64422" lon="3.78259">
        <ele>23.69</ele>
        <time>2018-02-18T10:33:35Z</time>
      </trkpt>
      <trkpt lat="50.64423" lon="3.78233">
        <ele>23.69</ele>
        <time>2018-02-18T10:33:48Z</time>
      </trkpt>
      <trkpt lat="50.64422" lon="3.78225">
        <ele>23.69</ele>
        <time>2018-02-18T10:33:53Z</time>
      </trkpt>
      <trkpt lat="50.64423" lon="3.78222">
        <ele>23.69</ele>
        <time>2018-02-18T10:33:54Z</time>
      </trkpt>
      <trkpt lat="50.64423" lon="3.7822">
        <ele>23.69</ele>
        <time>2018-02-18T10:33:55Z</time>
      </trkpt>
      <trkpt lat="50.64423" lon="3.78218">
        <ele>23.69</ele>
        <time>2018-02-18T10:33:56Z</time>
      </trkpt>
      <trkpt lat="50.64423" lon="3.78216">
        <ele>23.69</ele>
        <time>2018-02-18T10:33:57Z</time>
      </trkpt>
      <trkpt lat="50.64423" lon="3.78213">
        <ele>23.69</ele>
        <time>2018-02-18T10:33:58Z</time>
      </trkpt>
      <trkpt lat="50.64423" lon="3.78211">
        <ele>23.69</ele>
        <time>2018-02-18T10:33:59Z</time>
      </trkpt>
      <trkpt lat="50.64423" lon="3.78209">
        <ele>23.69</ele>
        <time>2018-02-18T10:34:00Z</time>
      </trkpt>
      <trkpt lat="50.64423" lon="3.78207">
        <ele>23.69</ele>
        <time>2018-02-18T10:34:01Z</time>
      </trkpt>
      <trkpt lat="50.64423" lon="3.78205">
        <ele>23.69</ele>
        <time>2018-02-18T10:34:02Z</time>
      </trkpt>
      <trkpt lat="50.64423" lon="3.78203">
        <ele>23.69</ele>
        <time>2018-02-18T10:34:03Z</time>
      </trkpt>
      <trkpt lat="50.64423" lon="3.78201">
        <ele>23.69</ele>
        <time>2018-02-18T10:34:04Z</time>
      </trkpt>
      <trkpt lat="50.64422" lon="3.78196">
        <ele>23.69</ele>
        <time>2018-02-18T10:34:06Z</time>
      </trkpt>
      <trkpt lat="50.64422" lon="3.78193">
        <ele>23.69</ele>
        <time>2018-02-18T10:34:07Z</time>
      </trkpt>
      <trkpt lat="50.64422" lon="3.78191">
        <ele>23.69</ele>
        <time>2018-02-18T10:34:08Z</time>
      </trkpt>
      <trkpt lat="50.64422" lon="3.78188">
        <ele>23.69</ele>
        <time>2018-02-18T10:34:09Z</time>
      </trkpt>
      <trkpt lat="50.64422" lon="3.78186">
        <ele>23.69</ele>
        <time>2018-02-18T10:34:10Z</time>
      </trkpt>
      <trkpt lat="50.64421" lon="3.78175">
        <ele>23.69</ele>
        <time>2018-02-18T10:34:15Z</time>
      </trkpt>
      <trkpt lat="50.64413" lon="3.78152">
        <ele>23.69</ele>
        <time>2018-02-18T10:34:28Z</time>
      </trkpt>
      <trkpt lat="50.64413" lon="3.7815">
        <ele>23.69</ele>
        <time>2018-02-18T10:34:29Z</time>
      </trkpt>
      <trkpt lat="50.64411" lon="3.78149">
        <ele>23.69</ele>
        <time>2018-02-18T10:34:30Z</time>
      </trkpt>
      <trkpt lat="50.64411" lon="3.78147">
        <ele>23.69</ele>
        <time>2018-02-18T10:34:31Z</time>
      </trkpt>
      <trkpt lat="50.64405" lon="3.78133">
        <ele>23.69</ele>
        <time>2018-02-18T10:34:39Z</time>
      </trkpt>
      <trkpt lat="50.64404" lon="3.78131">
        <ele>23.21</ele>
        <time>2018-02-18T10:34:40Z</time>
      </trkpt>
      <trkpt lat="50.64402" lon="3.78123">
        <ele>23.21</ele>
        <time>2018-02-18T10:34:44Z</time>
      </trkpt>
      <trkpt lat="50.64401" lon="3.78121">
        <ele>23.21</ele>
        <time>2018-02-18T10:34:45Z</time>
      </trkpt>
      <trkpt lat="50.644" lon="3.78119">
        <ele>23.21</ele>
        <time>2018-02-18T10:34:46Z</time>
      </trkpt>
      <trkpt lat="50.64399" lon="3.78117">
        <ele>23.69</ele>
        <time>2018-02-18T10:34:47Z</time>
      </trkpt>
      <trkpt lat="50.64398" lon="3.78116">
        <ele>23.21</ele>
        <time>2018-02-18T10:34:48Z</time>
      </trkpt>
      <trkpt lat="50.64397" lon="3.78114">
        <ele>23.21</ele>
        <time>2018-02-18T10:34:49Z</time>
      </trkpt>
      <trkpt lat="50.64386" lon="3.78093">
        <ele>23.21</ele>
        <time>2018-02-18T10:35:01Z</time>
      </trkpt>
      <trkpt lat="50.64386" lon="3.78091">
        <ele>23.21</ele>
        <time>2018-02-18T10:35:02Z</time>
      </trkpt>
      <trkpt lat="50.64379" lon="3.78074">
        <ele>23.21</ele>
        <time>2018-02-18T10:35:11Z</time>
      </trkpt>
      <trkpt lat="50.6437" lon="3.78061">
        <ele>23.21</ele>
        <time>2018-02-18T10:35:20Z</time>
      </trkpt>
      <trkpt lat="50.64363" lon="3.78042">
        <ele>23.21</ele>
        <time>2018-02-18T10:35:31Z</time>
      </trkpt>
      <trkpt lat="50.64351" lon="3.78018">
        <ele>23.21</ele>
        <time>2018-02-18T10:35:45Z</time>
      </trkpt>
      <trkpt lat="50.6435" lon="3.78018">
        <ele>23.21</ele>
        <time>2018-02-18T10:35:46Z</time>
      </trkpt>
      <trkpt lat="50.64349" lon="3.78018">
        <ele>23.21</ele>
        <time>2018-02-18T10:35:47Z</time>
      </trkpt>
      <trkpt lat="50.64347" lon="3.78014">
        <ele>23.21</ele>
        <time>2018-02-18T10:35:50Z</time>
      </trkpt>
      <trkpt lat="50.64345" lon="3.78012">
        <ele>23.21</ele>
        <time>2018-02-18T10:35:51Z</time>
      </trkpt>
      <trkpt lat="50.64344" lon="3.78011">
        <ele>23.21</ele>
        <time>2018-02-18T10:35:52Z</time>
      </trkpt>
      <trkpt lat="50.64343" lon="3.78009">
        <ele>23.21</ele>
        <time>2018-02-18T10:35:53Z</time>
      </trkpt>
      <trkpt lat="50.64341" lon="3.78008">
        <ele>23.21</ele>
        <time>2018-02-18T10:35:54Z</time>
      </trkpt>
      <trkpt lat="50.64341" lon="3.78007">
        <ele>23.21</ele>
        <time>2018-02-18T10:35:55Z</time>
      </trkpt>
      <trkpt lat="50.64339" lon="3.78005">
        <ele>23.21</ele>
        <time>2018-02-18T10:35:56Z</time>
      </trkpt>
      <trkpt lat="50.64338" lon="3.78004">
        <ele>23.21</ele>
        <time>2018-02-18T10:35:57Z</time>
      </trkpt>
      <trkpt lat="50.64337" lon="3.78002">
        <ele>23.21</ele>
        <time>2018-02-18T10:35:58Z</time>
      </trkpt>
      <trkpt lat="50.64336" lon="3.78">
        <ele>23.21</ele>
        <time>2018-02-18T10:35:59Z</time>
      </trkpt>
      <trkpt lat="50.64317" lon="3.77985">
        <ele>23.21</ele>
        <time>2018-02-18T10:36:14Z</time>
      </trkpt>
      <trkpt lat="50.64308" lon="3.77981">
        <ele>23.21</ele>
        <time>2018-02-18T10:36:20Z</time>
      </trkpt>
      <trkpt lat="50.64292" lon="3.77975">
        <ele>23.21</ele>
        <time>2018-02-18T10:36:33Z</time>
      </trkpt>
      <trkpt lat="50.64272" lon="3.77973">
        <ele>23.69</ele>
        <time>2018-02-18T10:36:48Z</time>
      </trkpt>
      <trkpt lat="50.64269" lon="3.77972">
        <ele>23.69</ele>
        <time>2018-02-18T10:36:50Z</time>
      </trkpt>
      <trkpt lat="50.64268" lon="3.77972">
        <ele>23.69</ele>
        <time>2018-02-18T10:36:51Z</time>
      </trkpt>
      <trkpt lat="50.64236" lon="3.77966">
        <ele>23.69</ele>
        <time>2018-02-18T10:37:12Z</time>
      </trkpt>
      <trkpt lat="50.6423" lon="3.77965">
        <ele>23.69</ele>
        <time>2018-02-18T10:37:21Z</time>
      </trkpt>
      <trkpt lat="50.64228" lon="3.77965">
        <ele>23.69</ele>
        <time>2018-02-18T10:37:22Z</time>
      </trkpt>
      <trkpt lat="50.64209" lon="3.77964">
        <ele>24.65</ele>
        <time>2018-02-18T10:37:38Z</time>
      </trkpt>
      <trkpt lat="50.64188" lon="3.77959">
        <ele>24.65</ele>
        <time>2018-02-18T10:37:55Z</time>
      </trkpt>
      <trkpt lat="50.64165" lon="3.77952">
        <ele>24.65</ele>
        <time>2018-02-18T10:38:12Z</time>
      </trkpt>
      <trkpt lat="50.64143" lon="3.77934">
        <ele>25.13</ele>
        <time>2018-02-18T10:38:30Z</time>
      </trkpt>
      <trkpt lat="50.64123" lon="3.77912">
        <ele>25.13</ele>
        <time>2018-02-18T10:38:47Z</time>
      </trkpt>
      <trkpt lat="50.64104" lon="3.77887">
        <ele>25.13</ele>
        <time>2018-02-18T10:39:07Z</time>
      </trkpt>
      <trkpt lat="50.64081" lon="3.77866">
        <ele>25.13</ele>
        <time>2018-02-18T10:39:26Z</time>
      </trkpt>
      <trkpt lat="50.64064" lon="3.77858">
        <ele>25.13</ele>
        <time>2018-02-18T10:39:41Z</time>
      </trkpt>
      <trkpt lat="50.64063" lon="3.77859">
        <ele>25.13</ele>
        <time>2018-02-18T10:39:42Z</time>
      </trkpt>
      <trkpt lat="50.64063" lon="3.77862">
        <ele>25.13</ele>
        <time>2018-02-18T10:39:43Z</time>
      </trkpt>
      <trkpt lat="50.64063" lon="3.77864">
        <ele>25.13</ele>
        <time>2018-02-18T10:39:44Z</time>
      </trkpt>
      <trkpt lat="50.64062" lon="3.77866">
        <ele>25.13</ele>
        <time>2018-02-18T10:39:45Z</time>
      </trkpt>
      <trkpt lat="50.64062" lon="3.77868">
        <ele>25.13</ele>
        <time>2018-02-18T10:39:46Z</time>
      </trkpt>
      <trkpt lat="50.64059" lon="3.77901">
        <ele>25.13</ele>
        <time>2018-02-18T10:40:03Z</time>
      </trkpt>
      <trkpt lat="50.64057" lon="3.77909">
        <ele>25.13</ele>
        <time>2018-02-18T10:40:09Z</time>
      </trkpt>
      <trkpt lat="50.64056" lon="3.77909">
        <ele>24.17</ele>
        <time>2018-02-18T10:40:10Z</time>
      </trkpt>
      <trkpt lat="50.64048" lon="3.77905">
        <ele>24.17</ele>
        <time>2018-02-18T10:40:18Z</time>
      </trkpt>
      <trkpt lat="50.64046" lon="3.77903">
        <ele>24.17</ele>
        <time>2018-02-18T10:40:21Z</time>
      </trkpt>
      <trkpt lat="50.64045" lon="3.77902">
        <ele>24.17</ele>
        <time>2018-02-18T10:40:22Z</time>
      </trkpt>
      <trkpt lat="50.64032" lon="3.77894">
        <ele>24.17</ele>
        <time>2018-02-18T10:40:31Z</time>
      </trkpt>
      <trkpt lat="50.64016" lon="3.77886">
        <ele>24.17</ele>
        <time>2018-02-18T10:40:45Z</time>
      </trkpt>
      <trkpt lat="50.63998" lon="3.77879">
        <ele>24.17</ele>
        <time>2018-02-18T10:40:58Z</time>
      </trkpt>
      <trkpt lat="50.63987" lon="3.77873">
        <ele>24.17</ele>
        <time>2018-02-18T10:41:10Z</time>
      </trkpt>
      <trkpt lat="50.63968" lon="3.77861">
        <ele>24.17</ele>
        <time>2018-02-18T10:41:26Z</time>
      </trkpt>
      <trkpt lat="50.63955" lon="3.77852">
        <ele>24.17</ele>
        <time>2018-02-18T10:41:41Z</time>
      </trkpt>
      <trkpt lat="50.63941" lon="3.77841">
        <ele>24.17</ele>
        <time>2018-02-18T10:41:49Z</time>
      </trkpt>
      <trkpt lat="50.63932" lon="3.77836">
        <ele>24.65</ele>
        <time>2018-02-18T10:41:59Z</time>
      </trkpt>
      <trkpt lat="50.63908" lon="3.7783">
        <ele>25.61</ele>
        <time>2018-02-18T10:42:09Z</time>
      </trkpt>
      <trkpt lat="50.63902" lon="3.77825">
        <ele>25.61</ele>
        <time>2018-02-18T10:42:14Z</time>
      </trkpt>
      <trkpt lat="50.63895" lon="3.77818">
        <ele>25.61</ele>
        <time>2018-02-18T10:42:20Z</time>
      </trkpt>
      <trkpt lat="50.63876" lon="3.77815">
        <ele>26.09</ele>
        <time>2018-02-18T10:42:35Z</time>
      </trkpt>
      <trkpt lat="50.63857" lon="3.77815">
        <ele>26.09</ele>
        <time>2018-02-18T10:42:50Z</time>
      </trkpt>
      <trkpt lat="50.63848" lon="3.77813">
        <ele>26.09</ele>
        <time>2018-02-18T10:42:57Z</time>
      </trkpt>
      <trkpt lat="50.63847" lon="3.77812">
        <ele>26.09</ele>
        <time>2018-02-18T10:42:58Z</time>
      </trkpt>
      <trkpt lat="50.63845" lon="3.7781">
        <ele>24.65</ele>
        <time>2018-02-18T10:43:00Z</time>
      </trkpt>
      <trkpt lat="50.63827" lon="3.77804">
        <ele>25.13</ele>
        <time>2018-02-18T10:43:16Z</time>
      </trkpt>
      <trkpt lat="50.63815" lon="3.77803">
        <ele>25.61</ele>
        <time>2018-02-18T10:43:27Z</time>
      </trkpt>
      <trkpt lat="50.6381" lon="3.77798">
        <ele>25.61</ele>
        <time>2018-02-18T10:43:32Z</time>
      </trkpt>
      <trkpt lat="50.63806" lon="3.77793">
        <ele>25.61</ele>
        <time>2018-02-18T10:43:36Z</time>
      </trkpt>
      <trkpt lat="50.63799" lon="3.77789">
        <ele>26.57</ele>
        <time>2018-02-18T10:43:41Z</time>
      </trkpt>
      <trkpt lat="50.63795" lon="3.77788">
        <ele>25.61</ele>
        <time>2018-02-18T10:43:44Z</time>
      </trkpt>
      <trkpt lat="50.63783" lon="3.77782">
        <ele>25.61</ele>
        <time>2018-02-18T10:43:58Z</time>
      </trkpt>
      <trkpt lat="50.63781" lon="3.77779">
        <ele>25.61</ele>
        <time>2018-02-18T10:43:59Z</time>
      </trkpt>
      <trkpt lat="50.6378" lon="3.77776">
        <ele>25.61</ele>
        <time>2018-02-18T10:44:00Z</time>
      </trkpt>
      <trkpt lat="50.63776" lon="3.77769">
        <ele>25.61</ele>
        <time>2018-02-18T10:44:04Z</time>
      </trkpt>
      <trkpt lat="50.63774" lon="3.77767">
        <ele>25.61</ele>
        <time>2018-02-18T10:44:06Z</time>
      </trkpt>
      <trkpt lat="50.63771" lon="3.77764">
        <ele>27.05</ele>
        <time>2018-02-18T10:44:09Z</time>
      </trkpt>
      <trkpt lat="50.63758" lon="3.77757">
        <ele>26.09</ele>
        <time>2018-02-18T10:44:21Z</time>
      </trkpt>
      <trkpt lat="50.63756" lon="3.77756">
        <ele>26.09</ele>
        <time>2018-02-18T10:44:23Z</time>
      </trkpt>
      <trkpt lat="50.63753" lon="3.77752">
        <ele>26.09</ele>
        <time>2018-02-18T10:44:28Z</time>
      </trkpt>
      <trkpt lat="50.63753" lon="3.77744">
        <ele>26.57</ele>
        <time>2018-02-18T10:44:44Z</time>
      </trkpt>
    </trkseg>
  </trk>
</gpx>